USGS Flow Graphs:

Purgatoire River at Madrid,CO
Purgatoire River below Trinidad Lake


Provisional Data Disclaimer

Real time data available on this website are provisional data that have not been reviewed or edited. These data may be subject to significant change and are not citeable until reviewed and approved by Tetra Tech.


Home

From 01-Jun-2017 00:00 To 24-Jun-2017 16:16

Time Series Table

Date/Time MDT SFPR-0.1-pH SFPR-0.1-Temperature SFPR-0.1-Conductivity SFPR-0.1-Chloride PR-37.1-pH PR-37.1-Temperature PR-37.1-Conductivity PR-37.1-Chloride WET-0.3-pH WET-0.3-Temperature WET-0.3-Conductivity WET-0.3-Chloride PR-16.9-pH PR-16.9-Temperature PR-16.9-Conductivity PR-16.9-Chloride LOR-0.2-pH LOR-0.2-Temperature LOR-0.2-Conductivity LOR-0.2-Chloride PR-24.9-pH PR-24.9-Temperature PR-24.9-Conductivity PR-24.9-Chloride SAR-0.4-pH SAR-0.4-Temperature SAR-0.4-Conductivity SAR-0.4-Chloride PR-8.8-pH PR-8.8-Temperature PR-8.8-Conductivity PR-8.8-Chloride LOR-0.2-Discharge PR-16.9-Discharge PR-24.9-Discharge PR-37.1-Discharge SAR-0.4-Discharge SFPR-0.1-Discharge WET-0.3-Discharge REI-1.4-pH REI-1.4-Temperature REI-1.4-Conductivity REI-1.4-Chloride REI-1.4-Discharge PR-8.8-SAR PR-16.9-SAR PR-24.9-SAR
24-Jun-2017 16:00 - - - - - - - - - - - - - - - - - - - - 8.42 16.55 155.60 -0.83 - - - - 8.35 17.47 219.00 3.10 - - 140.91 - - - - - - - - - 0.89 - 0.10
24-Jun-2017 15:45 - - - - - - - - - - - - - - - - - - - - 8.42 16.48 156.20 -0.80 - - - - 8.34 17.20 219.00 3.10 - - 140.91 - - - - - - - - - 0.89 - 0.11
24-Jun-2017 15:30 - - - - - - - - - - - - - - - - - - - - 8.41 16.32 155.90 -0.81 - - - - 8.34 17.03 219.00 3.10 - - 140.91 - - - - - - - - - 0.89 - 0.10
24-Jun-2017 15:15 - - - - - - - - - - - - - - - - - - - - 8.41 16.13 156.50 -0.78 - - - - 8.34 16.92 218.00 3.03 - - 140.91 - - - - - - - - - 0.88 - 0.11
24-Jun-2017 15:00 - - - - - - - - - - - - - - - - - - - - 8.40 15.92 156.00 -0.81 - - - - 8.34 16.64 218.00 3.03 - - 144.62 - - - - - - - - - 0.88 - 0.10
24-Jun-2017 14:45 - - - - - - - - - - - - - - - - - - - - 8.40 15.65 156.30 -0.79 - - - - 8.33 16.28 218.00 3.03 - - 142.76 - - - - - - - - - 0.88 - 0.11
24-Jun-2017 14:30 - - - - - - - - - - - - - - - - - - - - 8.39 15.35 154.50 -0.88 - - - - 8.33 16.01 218.00 3.03 - - 144.62 - - - - - - - - - 0.88 - 0.10
24-Jun-2017 14:15 - - - - - - - - - - - - - - - - - - - - 8.39 15.04 155.20 -0.85 - - - - 8.33 15.77 218.00 3.03 - - 144.62 - - - - - - - - - 0.88 - 0.10
24-Jun-2017 14:00 - - - - - - - - - - - - - - - - - - - - 8.38 14.75 154.80 -0.87 - - - - 8.33 15.43 218.00 3.03 - - 144.62 - - - - - - - - - 0.88 - 0.10
24-Jun-2017 13:45 - - - - - - - - - - - - - - - - - - - - 8.38 14.44 155.40 -0.84 - - - - 8.32 15.10 218.00 3.03 - - 142.76 - - - - - - - - - 0.88 - 0.10
24-Jun-2017 13:30 - - - - - - - - - - - - - - - - - - - - 8.37 14.10 155.60 -0.83 - - - - 8.32 14.70 217.00 2.96 - - 148.40 - - - - - - - - - 0.88 - 0.10
24-Jun-2017 13:15 - - - - - - - - - - - - - - - - - - - - 8.37 13.73 155.10 -0.85 - - - - 8.31 14.39 217.00 2.96 - - 146.50 - - - - - - - - - 0.88 - 0.10
24-Jun-2017 13:00 - - - - - - - - - - - - - - - - - - - - 8.35 13.35 154.90 -0.86 - - - - 8.31 14.05 216.00 2.89 - - 146.50 - - - - - - - - - 0.87 - 0.10
24-Jun-2017 12:45 - - - - - - - - - - - - - - - - - - - - 8.35 12.95 154.50 -0.88 - - - - 8.31 13.76 217.00 2.96 - - 148.40 - - - - - - - - - 0.88 - 0.10
24-Jun-2017 12:30 - - - - - - - - - - - - - - - - - - - - 8.34 12.67 154.20 -0.90 - - - - 8.30 13.46 217.00 2.96 - - 146.50 - - - - - - - - - 0.88 - 0.09
24-Jun-2017 12:15 - - - - - - - - - - - - - - - - - - - - 8.33 12.28 153.70 -0.92 - - - - 8.30 13.13 216.00 2.89 - - 148.40 - - - - - - - - - 0.87 - 0.09
24-Jun-2017 12:00 - - - - - - - - - - - - - - - - - - - - 8.32 11.94 153.80 -0.92 - - - - 8.30 12.80 216.00 2.89 - - 148.40 - - - - - - - - - 0.87 - 0.09
24-Jun-2017 11:45 - - - - - - - - - - - - - - - - - - - - 8.32 11.65 153.20 -0.95 - - - - 8.29 12.58 216.00 2.89 - - 146.50 - - - - - - - - - 0.87 - 0.09
24-Jun-2017 11:30 - - - - - - - - - - - - - - - - - - - - 8.31 11.39 153.30 -0.94 - - - - 8.29 12.38 215.00 2.82 - - 148.40 - - - - - - - - - 0.87 - 0.09
24-Jun-2017 11:15 - - - - - - - - - - - - - - - - - - - - 8.30 11.13 153.70 -0.92 - - - - 8.28 12.23 215.00 2.82 - - 142.76 - - - - - - - - - 0.87 - 0.09
24-Jun-2017 11:00 - - - - - - - - - - - - - - - - - - - - 8.28 10.64 152.40 -0.98 - - - - 8.28 12.09 216.00 2.89 - - 144.62 - - - - - - - - - 0.87 - 0.08
24-Jun-2017 10:45 - - - - - - - - - - - - - - - - - - - - 8.28 10.46 152.80 -0.96 - - - - 8.27 11.96 215.00 2.82 - - 146.50 - - - - - - - - - 0.87 - 0.09
24-Jun-2017 10:30 - - - - - - - - - - - - - - - - - - - - 8.27 10.28 153.10 -0.95 - - - - 8.27 11.79 215.00 2.82 - - 144.62 - - - - - - - - - 0.87 - 0.09
24-Jun-2017 10:15 - - - - - - - - - - - - - - - - - - - - - - - - - - - - 8.26 11.68 215.00 2.82 - - - - - - - - - - - - 0.87 - -
24-Jun-2017 10:00 - - - - - - - - - - - - - - - - - - - - 8.26 10.11 151.80 -1.01 - - - - 8.26 11.59 215.00 2.82 - - 144.62 - - - - - - - - - 0.87 - 0.08
24-Jun-2017 09:45 - - - - - - - - - - - - - - - - - - - - 8.25 9.99 152.50 -0.98 - - - - 8.25 11.53 215.00 2.82 - - 144.62 - - - - - - - - - 0.87 - 0.08
24-Jun-2017 09:30 - - - - - - - - - - - - - - - - - - - - 8.25 9.92 152.70 -0.97 - - - - 8.25 11.49 215.00 2.82 - - 144.62 - - - - - - - - - 0.87 - 0.09
24-Jun-2017 09:15 - - - - - - - - - - - - - - - - - - - - 8.24 9.86 152.60 -0.97 - - - - 8.24 11.44 215.00 2.82 - - 146.50 - - - - - - - - - 0.87 - 0.08
24-Jun-2017 09:00 - - - - - - - - - - - - - - - - - - - - 8.23 9.82 151.80 -1.01 - - - - 8.24 11.40 215.00 2.82 - - 144.62 - - - - - - - - - 0.87 - 0.08
24-Jun-2017 08:45 - - - - - - - - - - - - - - - - - - - - 8.22 9.75 152.60 -0.97 - - - - 8.23 11.37 215.00 2.82 - - 144.62 - - - - - - - - - 0.87 - 0.08
24-Jun-2017 08:30 - - - - - - - - - - - - - - - - - - - - 8.21 9.67 151.40 -1.03 - - - - 8.23 11.34 215.00 2.82 - - 150.31 - - - - - - - - - 0.87 - 0.08
24-Jun-2017 08:15 - - - - - - - - - - - - - - - - - - - - 8.20 9.63 152.20 -0.99 - - - - 8.22 11.32 215.00 2.82 - - 150.31 - - - - - - - - - 0.87 - 0.08
24-Jun-2017 08:00 - - - - - - - - - - - - - - - - - - - - 8.19 9.59 151.40 -1.03 - - - - 8.22 11.30 214.00 2.76 - - 144.62 - - - - - - - - - 0.86 - 0.08
24-Jun-2017 07:45 - - - - - - - - - - - - - - - - - - - - 8.19 9.56 151.80 -1.01 - - - - 8.21 11.29 214.00 2.76 - - 146.50 - - - - - - - - - 0.86 - 0.08
24-Jun-2017 07:30 - - - - - - - - - - - - - - - - - - - - 8.18 9.54 151.70 -1.02 - - - - 8.21 11.28 214.00 2.76 - - 146.50 - - - - - - - - - 0.86 - 0.08
24-Jun-2017 07:15 - - - - - - - - - - - - - - - - - - - - 8.18 9.52 151.30 -1.04 - - - - 8.20 11.26 214.00 2.76 - - 144.62 - - - - - - - - - 0.86 - 0.08
24-Jun-2017 07:00 - - - - - - - - - - - - - - - - - - - - 8.17 9.52 151.90 -1.01 - - - - 8.20 11.25 214.00 2.76 - - 144.62 - - - - - - - - - 0.86 - 0.08
24-Jun-2017 06:45 - - - - - - - - - - - - - - - - - - - - 8.17 9.53 151.90 -1.01 - - - - 8.19 11.25 215.00 2.82 - - 146.50 - - - - - - - - - 0.87 - 0.08
24-Jun-2017 06:30 - - - - - - - - - - - - - - - - - - - - 8.17 9.54 152.00 -1.00 - - - - 8.19 11.26 215.00 2.82 - - 148.40 - - - - - - - - - 0.87 - 0.08
24-Jun-2017 06:15 - - - - - - - - - - - - - - - - - - - - 8.17 9.56 151.80 -1.01 - - - - 8.18 11.28 215.00 2.82 - - 146.50 - - - - - - - - - 0.87 - 0.08
24-Jun-2017 06:00 - - - - - - - - - - - - - - - - - - - - 8.17 9.59 151.30 -1.04 - - - - 8.19 11.30 214.00 2.76 - - 148.40 - - - - - - - - - 0.86 - 0.08
24-Jun-2017 05:45 - - - - - - - - - - - - - - - - - - - - 8.17 9.62 151.70 -1.02 - - - - 8.19 11.32 215.00 2.82 - - 148.40 - - - - - - - - - 0.87 - 0.08
24-Jun-2017 05:30 - - - - - - - - - - - - - - - - - - - - 8.17 9.65 151.30 -1.04 - - - - 8.19 11.35 214.00 2.76 - - 148.40 - - - - - - - - - 0.86 - 0.08
24-Jun-2017 05:15 - - - - - - - - - - - - - - - - - - - - 8.17 9.68 151.50 -1.03 - - - - 8.19 11.38 214.00 2.76 - - 146.50 - - - - - - - - - 0.86 - 0.08
24-Jun-2017 05:00 - - - - - - - - - - - - - - - - - - - - 8.17 9.71 151.30 -1.04 - - - - 8.19 11.42 214.00 2.76 - - 142.76 - - - - - - - - - 0.86 - 0.08
24-Jun-2017 04:45 - - - - - - - - - - - - - - - - - - - - 8.17 9.75 151.10 -1.05 - - - - 8.19 11.46 214.00 2.76 - - 146.50 - - - - - - - - - 0.86 - 0.08
24-Jun-2017 04:30 - - - - - - - - - - - - - - - - - - - - 8.17 9.78 151.40 -1.03 - - - - 8.19 11.49 214.00 2.76 - - 148.40 - - - - - - - - - 0.86 - 0.08
24-Jun-2017 04:15 - - - - - - - - - - - - - - - - - - - - 8.17 9.82 151.40 -1.03 - - - - 8.19 11.53 214.00 2.76 - - 150.31 - - - - - - - - - 0.86 - 0.08
24-Jun-2017 04:00 - - - - - - - - - - - - - - - - - - - - 8.17 9.85 151.90 -1.01 - - - - 8.19 11.57 213.00 2.69 - - 148.40 - - - - - - - - - 0.85 - 0.08
24-Jun-2017 03:45 - - - - - - - - - - - - - - - - - - - - 8.17 9.88 151.50 -1.03 - - - - 8.19 11.61 213.00 2.69 - - 148.40 - - - - - - - - - 0.85 - 0.08
24-Jun-2017 03:30 - - - - - - - - - - - - - - - - - - - - 8.18 9.91 151.60 -1.02 - - - - 8.19 11.64 213.00 2.69 - - 150.31 - - - - - - - - - 0.85 - 0.08
24-Jun-2017 03:15 - - - - - - - - - - - - - - - - - - - - 8.17 9.94 151.40 -1.03 - - - - 8.19 11.68 213.00 2.69 - - 146.50 - - - - - - - - - 0.85 - 0.08
24-Jun-2017 03:00 - - - - - - - - - - - - - - - - - - - - 8.17 9.98 150.90 -1.06 - - - - 8.19 11.73 213.00 2.69 - - 146.50 - - - - - - - - - 0.85 - 0.07
24-Jun-2017 02:45 - - - - - - - - - - - - - - - - - - - - 8.17 10.01 151.50 -1.03 - - - - 8.19 11.77 213.00 2.69 - - 150.31 - - - - - - - - - 0.85 - 0.08
24-Jun-2017 02:30 - - - - - - - - - - - - - - - - - - - - 8.18 10.04 151.40 -1.03 - - - - 8.19 11.81 212.00 2.62 - - 148.40 - - - - - - - - - 0.85 - 0.08
24-Jun-2017 02:15 - - - - - - - - - - - - - - - - - - - - 8.18 10.07 151.40 -1.03 - - - - 8.19 11.85 212.00 2.62 - - 150.31 - - - - - - - - - 0.85 - 0.08
24-Jun-2017 02:00 - - - - - - - - - - - - - - - - - - - - 8.17 10.09 151.40 -1.03 - - - - 8.19 11.88 213.00 2.69 - - 148.40 - - - - - - - - - 0.85 - 0.08
24-Jun-2017 01:45 - - - - - - - - - - - - - - - - - - - - 8.18 10.11 151.10 -1.05 - - - - 8.19 11.92 212.00 2.62 - - 150.31 - - - - - - - - - 0.85 - 0.08
24-Jun-2017 01:30 - - - - - - - - - - - - - - - - - - - - 8.18 10.13 152.00 -1.00 - - - - 8.20 11.96 212.00 2.62 - - 150.31 - - - - - - - - - 0.85 - 0.08
24-Jun-2017 01:15 - - - - - - - - - - - - - - - - - - - - 8.18 10.14 150.80 1,310.71 - - - - 8.19 11.99 212.00 2.62 - - 144.62 - - - - - - - - - 0.85 - 0.07
24-Jun-2017 01:00 - - - - - - - - - - - - - - - - - - - - 8.18 10.16 151.10 -1.05 - - - - 8.20 12.02 211.00 2.55 - - 152.23 - - - - - - - - - 0.84 - 0.08
24-Jun-2017 00:45 - - - - - - - - - - - - - - - - - - - - 8.18 10.17 150.70 -1.07 - - - - 8.20 12.06 212.00 2.62 - - 150.31 - - - - - - - - - 0.85 - 0.07
24-Jun-2017 00:30 - - - - - - - - - - - - - - - - - - - - 8.18 10.19 150.90 -1.06 - - - - 8.20 12.09 212.00 2.62 - - 148.40 - - - - - - - - - 0.85 - 0.07
24-Jun-2017 00:15 - - - - - - - - - - - - - - - - - - - - 8.18 10.21 151.50 -1.03 - - - - 8.20 12.13 211.00 2.55 - - 152.23 - - - - - - - - - 0.84 - 0.08
24-Jun-2017 00:00 - - - - - - - - - - - - - - - - - - - - 8.18 10.22 151.20 -1.04 - - - - 8.20 12.17 211.00 2.55 - - 148.40 - - - - - - - - - 0.84 - 0.08
23-Jun-2017 23:45 - - - - - - - - - - - - - - - - - - - - 8.17 10.24 150.50 -1.08 - - - - 8.20 12.23 211.00 2.55 - - 146.50 - - - - - - - - - 0.84 - 0.07
23-Jun-2017 23:30 - - - - - - - - - - - - - - - - - - - - 8.17 10.27 150.70 -1.07 - - - - 8.20 12.28 210.00 2.48 - - 148.40 - - - - - - - - - 0.84 - 0.07
23-Jun-2017 23:15 - - - - - - - - - - - - - - - - - - - - 8.17 10.29 150.20 -1.09 - - - - 8.20 12.35 211.00 2.55 - - 150.31 - - - - - - - - - 0.84 - 0.07
23-Jun-2017 23:00 - - - - - - - - - - - - - - - - - - - - 8.16 10.31 150.30 -1.09 - - - - 8.20 12.42 211.00 2.55 - - 150.31 - - - - - - - - - 0.84 - 0.07
23-Jun-2017 22:45 - - - - - - - - - - - - - - - - - - - - 8.17 10.34 150.30 -1.09 - - - - 8.20 12.51 210.00 2.48 - - 150.31 - - - - - - - - - 0.84 - 0.07
23-Jun-2017 22:30 - - - - - - - - - - - - - - - - - - - - 8.17 10.37 150.30 -1.09 - - - - 8.21 12.59 210.00 2.48 - - 150.31 - - - - - - - - - 0.84 - 0.07
23-Jun-2017 22:15 - - - - - - - - - - - - - - - - - - - - 8.18 10.41 149.20 -1.14 - - - - 8.22 12.67 210.00 2.48 - - 152.23 - - - - - - - - - 0.84 - 0.07
23-Jun-2017 22:00 - - - - - - - - - - - - - - - - - - - - 8.18 10.45 149.10 -1.14 - - - - 8.22 12.75 209.00 0.00 - - 152.23 - - - - - - - - - 0.83 - 0.06
23-Jun-2017 21:45 - - - - - - - - - - - - - - - - - - - - 8.18 10.49 149.70 -1.12 - - - - 8.23 12.84 209.00 2.42 - - 154.18 - - - - - - - - - 0.83 - 0.07
23-Jun-2017 21:30 - - - - - - - - - - - - - - - - - - - - 8.19 10.52 149.20 -1.14 - - - - 8.23 12.92 209.00 2.42 - - 144.62 - - - - - - - - - 0.83 - 0.07
23-Jun-2017 21:15 - - - - - - - - - - - - - - - - - - - - 8.19 10.57 149.20 -1.14 - - - - 8.24 12.98 209.00 2.42 - - 152.23 - - - - - - - - - 0.83 - 0.07
23-Jun-2017 21:00 - - - - - - - - - - - - - - - - - - - - 8.20 10.61 149.70 -1.12 - - - - 8.24 13.02 209.00 2.42 - - 140.91 - - - - - - - - - 0.83 - 0.07
23-Jun-2017 20:45 - - - - - - - - - - - - - - - - - - - - 8.21 10.67 149.30 -1.13 - - - - 8.25 13.07 209.00 0.00 - - 131.89 - - - - - - - - - 0.83 - 0.07
23-Jun-2017 20:30 - - - - - - - - - - - - - - - - - - - - 8.21 10.74 149.20 -1.14 - - - - 8.26 13.10 209.00 0.00 - - 131.89 - - - - - - - - - 0.83 - 0.07
23-Jun-2017 20:15 - - - - - - - - - - - - - - - - - - - - 8.22 10.80 149.80 -1.11 - - - - 8.26 13.12 209.00 2.42 - - 131.89 - - - - - - - - - 0.83 - 0.07
23-Jun-2017 20:00 - - - - - - - - - - - - - - - - - - - - 8.22 10.86 149.30 -1.13 - - - - 8.27 13.10 209.00 2.42 - - 144.62 - - - - - - - - - 0.83 - 0.07
23-Jun-2017 19:45 - - - - - - - - - - - - - - - - - - - - 8.23 10.92 149.90 -1.11 - - - - 8.28 13.09 208.00 2.35 - - 146.50 - - - - - - - - - 0.82 - 0.07
23-Jun-2017 19:30 - - - - - - - - - - - - - - - - - - - - 8.23 10.97 147.20 -1.24 - - - - 8.28 13.09 208.00 2.35 - - 146.50 - - - - - - - - - 0.82 - 0.05
23-Jun-2017 19:15 - - - - - - - - - - - - - - - - - - - - 8.24 11.02 147.60 -1.22 - - - - 8.29 13.09 208.00 2.35 - - 146.50 - - - - - - - - - 0.82 - 0.06
23-Jun-2017 19:00 - - - - - - - - - - - - - - - - - - - - 8.24 11.06 147.70 -1.21 - - - - 8.29 13.10 208.00 2.35 - - 146.50 - - - - - - - - - 0.82 - 0.06
23-Jun-2017 18:45 - - - - - - - - - - - - - - - - - - - - 8.24 11.08 147.70 -1.21 - - - - 8.29 13.13 208.00 2.35 - - 146.50 - - - - - - - - - 0.82 - 0.06
23-Jun-2017 18:30 - - - - - - - - - - - - - - - - - - - - 8.25 11.11 147.70 -1.21 - - - - 8.29 13.18 207.00 2.28 - - 146.50 - - - - - - - - - 0.82 - 0.06
23-Jun-2017 18:15 - - - - - - - - - - - - - - - - - - - - 8.25 11.12 147.80 -1.21 - - - - 8.29 13.16 207.00 2.28 - - 146.50 - - - - - - - - - 0.82 - 0.06
23-Jun-2017 18:00 - - - - - - - - - - - - - - - - - - - - 8.25 11.13 147.80 -1.21 - - - - 8.29 13.05 207.00 2.28 - - 142.76 - - - - - - - - - 0.82 - 0.06
23-Jun-2017 17:45 - - - - - - - - - - - - - - - - - - - - 8.25 11.14 147.30 -1.23 - - - - 8.29 12.95 207.00 2.28 - - 137.25 - - - - - - - - - 0.82 - 0.05
23-Jun-2017 17:30 - - - - - - - - - - - - - - - - - - - - 8.25 11.08 147.30 -1.23 - - - - 8.29 12.94 206.00 2.21 - - 139.07 - - - - - - - - - 0.81 - 0.05
23-Jun-2017 17:15 - - - - - - - - - - - - - - - - - - - - 8.26 11.04 147.80 -1.21 - - - - 8.29 12.87 206.00 2.21 - - 140.91 - - - - - - - - - 0.81 - 0.06
23-Jun-2017 17:00 - - - - - - - - - - - - - - - - - - - - 8.25 11.04 147.80 -1.21 - - - - 8.29 12.73 206.00 2.21 - - 139.07 - - - - - - - - - 0.81 - 0.06
23-Jun-2017 16:45 - - - - - - - - - - - - - - - - - - - - 8.26 11.02 147.20 -1.24 - - - - 8.29 12.63 205.00 2.14 - - 137.25 - - - - - - - - - 0.80 - 0.05
23-Jun-2017 16:30 - - - - - - - - - - - - - - - - - - - - 8.26 10.98 147.50 -1.22 - - - - 8.29 12.61 205.00 2.14 - - 140.91 - - - - - - - - - 0.80 - 0.06
23-Jun-2017 16:15 - - - - - - - - - - - - - - - - - - - - 8.26 11.00 147.30 -1.23 - - - - 8.29 12.51 205.00 2.14 - - 140.91 - - - - - - - - - 0.80 - 0.05
23-Jun-2017 16:00 - - - - - - - - - - - - - - - - - - - - 8.26 11.00 147.60 -1.22 - - - - 8.29 12.41 205.00 2.14 - - 137.25 - - - - - - - - - 0.80 - 0.06
23-Jun-2017 15:45 - - - - - - - - - - - - - - - - - - - - 8.26 11.02 147.60 -1.22 - - - - 8.28 12.30 205.00 2.14 - - 137.25 - - - - - - - - - 0.80 - 0.06
23-Jun-2017 15:30 - - - - - - - - - - - - - - - - - - - - 8.26 11.04 147.80 -1.21 - - - - 8.28 12.19 205.00 2.14 - - 131.89 - - - - - - - - - 0.80 - 0.06
23-Jun-2017 15:15 - - - - - - - - - - - - - - - - - - - - 8.26 11.02 148.30 -1.18 - - - - 8.28 12.17 204.00 2.08 - - 139.07 - - - - - - - - - 0.80 - 0.06
23-Jun-2017 15:00 - - - - - - - - - - - - - - - - - - - - 8.25 11.01 148.50 -1.17 - - - - 8.27 12.16 203.00 2.01 - - 135.45 - - - - - - - - - 0.79 - 0.06
23-Jun-2017 14:45 - - - - - - - - - - - - - - - - - - - - 8.25 10.98 148.50 -1.17 - - - - 8.27 12.14 204.00 2.08 - - 137.25 - - - - - - - - - 0.80 - 0.06
23-Jun-2017 14:30 - - - - - - - - - - - - - - - - - - - - 8.24 10.94 148.10 -1.19 - - - - 8.27 12.12 203.00 2.01 - - 137.25 - - - - - - - - - 0.79 - 0.06
23-Jun-2017 14:15 - - - - - - - - - - - - - - - - - - - - 8.24 10.85 148.00 -1.20 - - - - 8.26 12.09 203.00 2.01 - - 135.45 - - - - - - - - - 0.79 - 0.06
23-Jun-2017 14:00 - - - - - - - - - - - - - - - - - - - - 8.23 10.74 148.20 -1.19 - - - - 8.26 12.06 203.00 2.01 - - 139.07 - - - - - - - - - 0.79 - 0.06
23-Jun-2017 13:45 - - - - - - - - - - - - - - - - - - - - 8.23 10.51 148.00 -1.20 - - - - 8.26 12.06 203.00 2.01 - - 139.07 - - - - - - - - - 0.79 - 0.06
23-Jun-2017 13:30 - - - - - - - - - - - - - - - - - - - - 8.22 10.35 147.70 -1.21 - - - - 8.25 12.05 203.00 2.01 - - 139.07 - - - - - - - - - 0.79 - 0.06
23-Jun-2017 13:15 - - - - - - - - - - - - - - - - - - - - 8.21 10.25 147.40 -1.23 - - - - 8.25 12.05 203.00 2.01 - - 140.91 - - - - - - - - - 0.79 - 0.05
23-Jun-2017 13:00 - - - - - - - - - - - - - - - - - - - - 8.21 10.18 147.40 -1.23 - - - - 8.24 12.08 203.00 2.01 - - 142.76 - - - - - - - - - 0.79 - 0.05
23-Jun-2017 12:45 - - - - - - - - - - - - - - - - - - - - 8.20 10.10 147.40 -1.23 - - - - 8.24 12.08 202.00 1.94 - - 139.07 - - - - - - - - - 0.79 - 0.05
23-Jun-2017 12:30 - - - - - - - - - - - - - - - - - - - - 8.20 10.04 148.00 -1.20 - - - - 8.24 12.09 202.00 1.94 - - 133.66 - - - - - - - - - 0.79 - 0.06
23-Jun-2017 12:15 - - - - - - - - - - - - - - - - - - - - 8.20 10.01 148.10 -1.19 - - - - 8.23 12.13 202.00 1.94 - - 135.45 - - - - - - - - - 0.79 - 0.06
23-Jun-2017 12:00 - - - - - - - - - - - - - - - - - - - - 8.20 9.98 147.90 -1.20 - - - - 8.23 12.17 202.00 1.94 - - 135.45 - - - - - - - - - 0.79 - 0.06
23-Jun-2017 11:45 - - - - - - - - - - - - - - - - - - - - 8.20 9.95 147.80 -1.21 - - - - 8.23 12.23 202.00 1.94 - - 142.76 - - - - - - - - - 0.79 - 0.06
23-Jun-2017 11:30 - - - - - - - - - - - - - - - - - - - - 8.20 9.92 147.80 -1.21 - - - - 8.22 12.28 202.00 1.94 - - 144.62 - - - - - - - - - 0.79 - 0.06
23-Jun-2017 11:15 - - - - - - - - - - - - - - - - - - - - 8.19 9.90 147.10 -1.24 - - - - 8.22 12.31 201.00 1.87 - - 142.76 - - - - - - - - - 0.78 - 0.05
23-Jun-2017 11:00 - - - - - - - - - - - - - - - - - - - - 8.19 9.89 147.30 -1.23 - - - - 8.21 12.37 201.00 1.87 - - 146.50 - - - - - - - - - 0.78 - 0.05
23-Jun-2017 10:45 - - - - - - - - - - - - - - - - - - - - 8.19 9.86 147.00 -1.25 - - - - 8.21 12.40 201.00 1.87 - - 142.76 - - - - - - - - - 0.78 - 0.05
23-Jun-2017 10:30 - - - - - - - - - - - - - - - - - - - - 8.19 9.81 147.50 -1.22 - - - - 8.21 12.43 201.00 1.87 - - 146.50 - - - - - - - - - 0.78 - 0.06
23-Jun-2017 10:15 - - - - - - - - - - - - - - - - - - - - 8.19 9.77 147.30 -1.23 - - - - 8.20 12.43 201.00 1.87 - - 144.62 - - - - - - - - - 0.78 - 0.05
23-Jun-2017 10:00 - - - - - - - - - - - - - - - - - - - - 8.19 9.74 147.00 -1.25 - - - - 8.19 12.48 201.00 1.87 - - 144.62 - - - - - - - - - 0.78 - 0.05
23-Jun-2017 09:45 - - - - - - - - - - - - - - - - - - - - 8.18 9.72 146.90 -1.25 - - - - 8.19 12.53 201.00 1.87 - - 144.62 - - - - - - - - - 0.78 - 0.05
23-Jun-2017 09:30 - - - - - - - - - - - - - - - - - - - - 8.18 9.70 147.20 -1.24 - - - - 8.19 12.59 201.00 1.87 - - 146.50 - - - - - - - - - 0.78 - 0.05
23-Jun-2017 09:15 - - - - - - - - - - - - - - - - - - - - 8.18 9.68 147.00 -1.25 - - - - 8.19 12.64 201.00 1.87 - - 150.31 - - - - - - - - - 0.78 - 0.05
23-Jun-2017 09:00 - - - - - - - - - - - - - - - - - - - - 8.17 9.65 146.30 -1.28 - - - - 8.19 12.70 201.00 1.87 - - 144.62 - - - - - - - - - 0.78 - 0.05
23-Jun-2017 08:45 - - - - - - - - - - - - - - - - - - - - 8.17 9.65 146.50 -1.27 - - - - 8.18 12.75 202.00 1.94 - - 148.40 - - - - - - - - - 0.79 - 0.05
23-Jun-2017 08:30 - - - - - - - - - - - - - - - - - - - - 8.16 9.63 146.50 -1.27 - - - - 8.18 12.82 201.00 1.87 - - 148.40 - - - - - - - - - 0.78 - 0.05
23-Jun-2017 08:15 - - - - - - - - - - - - - - - - - - - - 8.16 9.61 146.60 -1.27 - - - - 8.18 12.89 201.00 1.87 - - 146.50 - - - - - - - - - 0.78 - 0.05
23-Jun-2017 08:00 - - - - - - - - - - - - - - - - - - - - 8.15 9.60 146.90 -1.25 - - - - 8.18 12.97 201.00 1.87 - - 146.50 - - - - - - - - - 0.78 - 0.05
23-Jun-2017 07:45 - - - - - - - - - - - - - - - - - - - - 8.15 9.61 147.10 -1.24 - - - - 8.18 13.04 202.00 1.94 - - 142.76 - - - - - - - - - 0.79 - 0.05
23-Jun-2017 07:30 - - - - - - - - - - - - - - - - - - - - 8.14 9.61 147.10 -1.24 - - - - 8.17 13.12 201.00 1.87 - - 148.40 - - - - - - - - - 0.78 - 0.05
23-Jun-2017 07:15 - - - - - - - - - - - - - - - - - - - - 8.14 9.63 146.40 -1.28 - - - - 8.17 13.20 201.00 1.87 - - 139.07 - - - - - - - - - 0.78 - 0.05
23-Jun-2017 07:00 - - - - - - - - - - - - - - - - - - - - 8.13 9.66 146.50 -1.27 - - - - 8.17 13.28 201.00 1.87 - - 146.50 - - - - - - - - - 0.78 - 0.05
23-Jun-2017 06:45 - - - - - - - - - - - - - - - - - - - - 8.13 9.71 146.40 -1.28 - - - - 8.16 13.36 201.00 1.87 - - 148.40 - - - - - - - - - 0.78 - 0.05
23-Jun-2017 06:30 - - - - - - - - - - - - - - - - - - - - 8.13 9.77 146.10 -1.29 - - - - 8.16 13.45 202.00 1.94 - - 142.76 - - - - - - - - - 0.79 - 0.05
23-Jun-2017 06:15 - - - - - - - - - - - - - - - - - - - - 8.13 9.85 146.50 -1.27 - - - - 8.16 13.56 202.00 1.94 - - 142.76 - - - - - - - - - 0.79 - 0.05
23-Jun-2017 06:00 - - - - - - - - - - - - - - - - - - - - 8.13 9.94 146.50 -1.27 - - - - 8.16 13.67 202.00 1.94 - - 144.62 - - - - - - - - - 0.79 - 0.05
23-Jun-2017 05:45 - - - - - - - - - - - - - - - - - - - - 8.13 10.03 145.80 -1.30 - - - - 8.16 13.79 202.00 1.94 - - 142.76 - - - - - - - - - 0.79 - 0.05
23-Jun-2017 05:30 - - - - - - - - - - - - - - - - - - - - 8.13 10.14 146.00 -1.29 - - - - 8.16 13.92 202.00 1.94 - - 140.91 - - - - - - - - - 0.79 - 0.05
23-Jun-2017 05:15 - - - - - - - - - - - - - - - - - - - - 8.13 10.25 146.20 -1.29 - - - - 8.16 14.05 202.00 1.94 - - 148.40 - - - - - - - - - 0.79 - 0.05
23-Jun-2017 05:00 - - - - - - - - - - - - - - - - - - - - 8.13 10.37 146.20 -1.29 - - - - 8.16 14.18 202.00 1.94 - - 148.40 - - - - - - - - - 0.79 - 0.05
23-Jun-2017 04:45 - - - - - - - - - - - - - - - - - - - - 8.13 10.49 146.50 -1.27 - - - - 8.17 14.30 203.00 2.01 - - 146.50 - - - - - - - - - 0.79 - 0.05
23-Jun-2017 04:30 - - - - - - - - - - - - - - - - - - - - 8.14 10.60 146.80 -1.26 - - - - 8.17 14.42 203.00 2.01 - - 146.50 - - - - - - - - - 0.79 - 0.05
23-Jun-2017 04:15 - - - - - - - - - - - - - - - - - - - - 8.14 10.73 147.20 -1.24 - - - - 8.17 14.53 202.00 1.94 - - 150.31 - - - - - - - - - 0.79 - 0.05
23-Jun-2017 04:00 - - - - - - - - - - - - - - - - - - - - 8.14 10.85 146.80 -1.26 - - - - 8.17 14.65 202.00 1.94 - - 146.50 - - - - - - - - - 0.79 - 0.05
23-Jun-2017 03:45 - - - - - - - - - - - - - - - - - - - - 8.14 10.99 147.10 -1.24 - - - - 8.17 14.76 202.00 1.94 - - 148.40 - - - - - - - - - 0.79 - 0.05
23-Jun-2017 03:30 - - - - - - - - - - - - - - - - - - - - 8.14 11.13 147.00 -1.25 - - - - 8.17 14.87 203.00 2.01 - - 142.76 - - - - - - - - - 0.79 - 0.05
23-Jun-2017 03:15 - - - - - - - - - - - - - - - - - - - - 8.14 11.27 146.80 -1.26 - - - - 8.18 14.98 203.00 2.01 - - 146.50 - - - - - - - - - 0.79 - 0.05
23-Jun-2017 03:00 - - - - - - - - - - - - - - - - - - - - 8.14 11.41 147.30 -1.23 - - - - 8.18 15.11 203.00 2.01 - - 144.62 - - - - - - - - - 0.79 - 0.05
23-Jun-2017 02:45 - - - - - - - - - - - - - - - - - - - - 8.14 11.56 147.30 -1.23 - - - - 8.18 15.23 203.00 2.01 - - 150.31 - - - - - - - - - 0.79 - 0.05
23-Jun-2017 02:30 - - - - - - - - - - - - - - - - - - - - 8.14 11.72 147.40 -1.23 - - - - 8.18 15.35 203.00 2.01 - - 150.31 - - - - - - - - - 0.79 - 0.05
23-Jun-2017 02:15 - - - - - - - - - - - - - - - - - - - - 8.15 11.87 146.50 -1.27 - - - - 8.19 15.47 203.00 2.01 - - 148.40 - - - - - - - - - 0.79 - 0.05
23-Jun-2017 02:00 - - - - - - - - - - - - - - - - - - - - 8.15 12.03 146.20 -1.29 - - - - 8.19 15.58 203.00 2.01 - - 148.40 - - - - - - - - - 0.79 - 0.05
23-Jun-2017 01:45 - - - - - - - - - - - - - - - - - - - - 8.15 12.19 146.20 -1.29 - - - - 8.19 15.68 203.00 2.01 - - 144.62 - - - - - - - - - 0.79 - 0.05
23-Jun-2017 01:30 - - - - - - - - - - - - - - - - - - - - 8.15 12.36 146.80 -1.26 - - - - 8.19 15.78 203.00 2.01 - - 146.50 - - - - - - - - - 0.79 - 0.05
23-Jun-2017 01:15 - - - - - - - - - - - - - - - - - - - - 8.15 12.53 147.00 -1.25 - - - - 8.19 15.87 203.00 2.01 - - 144.62 - - - - - - - - - 0.79 - 0.05
23-Jun-2017 01:00 - - - - - - - - - - - - - - - - - - - - 8.15 12.70 147.10 -1.24 - - - - 8.19 15.96 203.00 2.01 - - 146.50 - - - - - - - - - 0.79 - 0.05
23-Jun-2017 00:45 - - - - - - - - - - - - - - - - - - - - 8.15 12.88 146.70 -1.26 - - - - 8.19 16.06 203.00 2.01 - - 148.40 - - - - - - - - - 0.79 - 0.05
23-Jun-2017 00:30 - - - - - - - - - - - - - - - - - - - - 8.15 13.06 146.90 -1.25 - - - - 8.20 16.15 203.00 2.01 - - 142.76 - - - - - - - - - 0.79 - 0.05
23-Jun-2017 00:15 - - - - - - - - - - - - - - - - - - - - 8.15 13.25 147.40 -1.23 - - - - 8.20 16.23 203.00 2.01 - - 144.62 - - - - - - - - - 0.79 - 0.05
23-Jun-2017 00:00 - - - - - - - - - - - - - - - - - - - - 8.16 13.43 147.90 -1.20 - - - - 8.20 16.30 203.00 2.01 - - 146.50 - - - - - - - - - 0.79 - 0.06
22-Jun-2017 23:45 - - - - - - - - - - - - - - - - - - - - 8.16 13.60 148.10 -1.19 - - - - 8.21 16.36 203.00 2.01 - - 148.40 - - - - - - - - - 0.79 - 0.06
22-Jun-2017 23:30 - - - - - - - - - - - - - - - - - - - - 8.17 13.76 147.60 -1.22 - - - - 8.21 16.42 203.00 2.01 - - 146.50 - - - - - - - - - 0.79 - 0.06
22-Jun-2017 23:15 - - - - - - - - - - - - - - - - - - - - 8.17 13.91 148.50 -1.17 - - - - 8.21 16.48 203.00 2.01 - - 142.76 - - - - - - - - - 0.79 - 0.06
22-Jun-2017 23:00 - - - - - - - - - - - - - - - - - - - - 8.17 14.05 148.10 -1.19 - - - - 8.21 16.58 203.00 2.01 - - 148.40 - - - - - - - - - 0.79 - 0.06
22-Jun-2017 22:45 - - - - - - - - - - - - - - - - - - - - 8.16 14.20 148.70 -1.16 - - - - 8.21 16.69 203.00 2.01 - - 142.76 - - - - - - - - - 0.79 - 0.06
22-Jun-2017 22:30 - - - - - - - - - - - - - - - - - - - - 8.17 14.36 148.40 -1.18 - - - - 8.22 16.79 203.00 2.01 - - 144.62 - - - - - - - - - 0.79 - 0.06
22-Jun-2017 22:15 - - - - - - - - - - - - - - - - - - - - 8.17 14.52 148.40 -1.18 - - - - 8.22 16.88 203.00 2.01 - - 146.50 - - - - - - - - - 0.79 - 0.06
22-Jun-2017 22:00 - - - - - - - - - - - - - - - - - - - - 8.18 14.66 148.70 -1.16 - - - - 8.22 16.97 203.00 2.01 - - 140.91 - - - - - - - - - 0.79 - 0.06
22-Jun-2017 21:45 - - - - - - - - - - - - - - - - - - - - 8.18 14.80 149.00 -1.15 - - - - 8.23 17.05 203.00 2.01 - - 144.62 - - - - - - - - - 0.79 - 0.06
22-Jun-2017 21:30 - - - - - - - - - - - - - - - - - - - - 8.18 14.90 149.70 -1.12 - - - - 8.23 17.11 203.00 2.01 - - 139.07 - - - - - - - - - 0.79 - 0.07
22-Jun-2017 21:15 - - - - - - - - - - - - - - - - - - - - 8.19 14.99 149.30 -1.13 - - - - 8.24 17.17 203.00 2.01 - - 139.07 - - - - - - - - - 0.79 - 0.07
22-Jun-2017 21:00 - - - - - - - - - - - - - - - - - - - - 8.19 15.08 149.20 -1.14 - - - - 8.24 17.24 202.00 1.94 - - 140.91 - - - - - - - - - 0.79 - 0.07
22-Jun-2017 20:45 - - - - - - - - - - - - - - - - - - - - 8.20 15.20 149.80 -1.11 - - - - 8.25 17.28 201.00 1.87 - - 140.91 - - - - - - - - - 0.78 - 0.07
22-Jun-2017 20:30 - - - - - - - - - - - - - - - - - - - - 8.21 15.36 150.20 -1.09 - - - - 8.25 17.29 203.00 2.01 - - 142.76 - - - - - - - - - 0.79 - 0.07
22-Jun-2017 20:15 - - - - - - - - - - - - - - - - - - - - 8.21 15.53 149.60 -1.12 - - - - 8.26 17.31 203.00 2.01 - - 140.91 - - - - - - - - - 0.79 - 0.07
22-Jun-2017 20:00 - - - - - - - - - - - - - - - - - - - - 8.22 15.69 150.20 -1.09 - - - - 8.27 17.31 202.00 1.94 - - 139.07 - - - - - - - - - 0.79 - 0.07
22-Jun-2017 19:45 - - - - - - - - - - - - - - - - - - - - 8.22 15.83 149.60 -1.12 - - - - 8.27 17.35 202.00 1.94 - - 137.25 - - - - - - - - - 0.79 - 0.07
22-Jun-2017 19:30 - - - - - - - - - - - - - - - - - - - - 8.23 15.95 150.10 -1.10 - - - - 8.28 17.42 202.00 1.94 - - 139.07 - - - - - - - - - 0.79 - 0.07
22-Jun-2017 19:15 - - - - - - - - - - - - - - - - - - - - 8.24 16.06 150.30 -1.09 - - - - 8.29 17.51 202.00 0.00 - - 139.07 - - - - - - - - - 0.79 - 0.07
22-Jun-2017 19:00 - - - - - - - - - - - - - - - - - - - - 8.24 16.16 150.30 -1.09 - - - - 8.29 17.56 202.00 1.94 - - 139.07 - - - - - - - - - 0.79 - 0.07
22-Jun-2017 18:45 - - - - - - - - - - - - - - - - - - - - 8.24 16.22 150.40 -1.08 - - - - 8.29 17.56 202.00 1.94 - - 140.91 - - - - - - - - - 0.79 - 0.07
22-Jun-2017 18:30 - - - - - - - - - - - - - - - - - - - - 8.25 16.23 150.20 -1.09 - - - - 8.30 17.49 202.00 1.94 - - 140.91 - - - - - - - - - 0.79 - 0.07
22-Jun-2017 18:15 - - - - - - - - - - - - - - - - - - - - 8.25 16.26 150.00 -1.10 - - - - 8.29 17.34 202.00 0.00 - - 140.91 - - - - - - - - - 0.79 - 0.07
22-Jun-2017 18:00 - - - - - - - - - - - - - - - - - - - - 8.25 16.34 150.70 -1.07 - - - - 8.30 17.24 202.00 1.94 - - 142.76 - - - - - - - - - 0.79 - 0.07
22-Jun-2017 17:45 - - - - - - - - - - - - - - - - - - - - 8.25 16.42 150.40 -1.08 - - - - 8.30 17.17 202.00 1.94 - - 142.76 - - - - - - - - - 0.79 - 0.07
22-Jun-2017 17:30 - - - - - - - - - - - - - - - - - - - - 8.25 16.50 149.60 -1.12 - - - - 8.31 17.07 202.00 1.94 - - 139.07 - - - - - - - - - 0.79 - 0.07
22-Jun-2017 17:15 - - - - - - - - - - - - - - - - - - - - 8.26 16.53 149.20 -1.14 - - - - 8.30 16.93 202.00 1.94 - - 139.07 - - - - - - - - - 0.79 - 0.07
22-Jun-2017 17:00 - - - - - - - - - - - - - - - - - - - - 8.26 16.49 149.10 -1.14 - - - - 8.30 16.77 202.00 1.94 - - 140.91 - - - - - - - - - 0.79 - 0.06
22-Jun-2017 16:45 - - - - - - - - - - - - - - - - - - - - 8.27 16.42 149.60 -1.12 - - - - 8.30 16.79 202.00 1.94 - - 142.76 - - - - - - - - - 0.79 - 0.07
22-Jun-2017 16:30 - - - - - - - - - - - - - - - - - - - - 8.27 16.39 149.40 -1.13 - - - - 8.29 16.68 202.00 1.94 - - 146.50 - - - - - - - - - 0.79 - 0.07
22-Jun-2017 16:15 - - - - - - - - - - - - - - - - - - - - 8.27 16.34 148.70 -1.16 - - - - 8.29 16.43 201.00 1.87 - - 146.50 - - - - - - - - - 0.78 - 0.06
22-Jun-2017 16:00 - - - - - - - - - - - - - - - - - - - - 8.26 16.29 149.20 -1.14 - - - - 8.29 16.33 202.00 1.94 - - 144.62 - - - - - - - - - 0.79 - 0.07
22-Jun-2017 15:45 - - - - - - - - - - - - - - - - - - - - 8.27 16.12 149.00 -1.15 - - - - 8.30 16.44 202.00 1.94 - - 142.76 - - - - - - - - - 0.79 - 0.06
22-Jun-2017 15:30 - - - - - - - - - - - - - - - - - - - - 8.27 16.08 148.60 -1.17 - - - - 8.30 16.54 202.00 1.94 - - 144.62 - - - - - - - - - 0.79 - 0.06
22-Jun-2017 15:15 - - - - - - - - - - - - - - - - - - - - 8.28 16.18 149.20 -1.14 - - - - 8.31 16.65 202.00 1.94 - - 144.62 - - - - - - - - - 0.79 - 0.07
22-Jun-2017 15:00 - - - - - - - - - - - - - - - - - - - - 8.29 16.25 149.00 -1.15 - - - - 8.31 16.64 202.00 1.94 - - 139.07 - - - - - - - - - 0.79 - 0.06
22-Jun-2017 14:45 - - - - - - - - - - - - - - - - - - - - 8.29 16.20 148.40 -1.18 - - - - 8.31 16.59 202.00 1.94 - - 148.40 - - - - - - - - - 0.79 - 0.06
22-Jun-2017 14:30 - - - - - - - - - - - - - - - - - - - - 8.28 15.91 148.90 -1.15 - - - - 8.30 16.21 201.00 1.87 - - 146.50 - - - - - - - - - 0.78 - 0.06
22-Jun-2017 14:15 - - - - - - - - - - - - - - - - - - - - 8.28 15.55 148.60 -1.17 - - - - 8.29 15.84 201.00 1.87 - - 148.40 - - - - - - - - - 0.78 - 0.06
22-Jun-2017 14:00 - - - - - - - - - - - - - - - - - - - - - - - - - - - - 8.29 15.63 201.00 1.87 - - - - - - - - - - - - 0.78 - -
22-Jun-2017 13:45 - - - - - - - - - - - - - - - - - - - - - - - - - - - - 8.28 15.49 201.00 1.87 - - - - - - - - - - - - 0.78 - -
22-Jun-2017 13:30 - - - - - - - - - - - - - - - - - - - - - - - - - - - - 8.28 15.44 200.00 1.80 - - - - - - - - - - - - 0.77 - -
22-Jun-2017 13:15 - - - - - - - - - - - - - - - - - - - - - - - - - - - - 8.28 15.16 201.00 1.87 - - - - - - - - - - - - 0.78 - -
22-Jun-2017 13:00 - - - - - - - - - - - - - - - - - - - - 8.25 13.92 147.60 -1.22 - - - - 8.28 15.16 200.00 1.80 - - 154.18 - - - - - - - - - 0.77 - 0.06
22-Jun-2017 12:45 - - - - - - - - - - - - - - - - - - - - 8.25 13.54 146.90 -1.25 - - - - 8.27 14.96 199.70 1.78 - - 156.13 - - - - - - - - - 0.77 - 0.05
22-Jun-2017 12:30 - - - - - - - - - - - - - - - - - - - - 8.24 13.09 147.20 -1.24 - - - - 8.26 14.66 199.50 1.77 - - 152.23 - - - - - - - - - 0.77 - 0.05
22-Jun-2017 12:15 - - - - - - - - - - - - - - - - - - - - 8.23 12.67 147.10 -1.24 - - - - 8.27 14.70 199.80 1.79 - - 154.18 - - - - - - - - - 0.77 - 0.05
22-Jun-2017 12:00 - - - - - - - - - - - - - - - - - - - - 8.23 12.26 146.20 -1.29 - - - - 8.27 14.81 199.20 1.75 - - 158.11 - - - - - - - - - 0.77 - 0.05
22-Jun-2017 11:45 - - - - - - - - - - - - - - - - - - - - 8.22 11.88 146.70 -1.26 - - - - 8.27 14.74 199.10 1.74 - - 152.23 - - - - - - - - - 0.77 - 0.05
22-Jun-2017 11:30 - - - - - - - - - - - - - - - - - - - - 8.22 11.72 146.10 -1.29 - - - - 8.27 14.47 199.40 1.76 - - 158.11 - - - - - - - - - 0.77 - 0.05
22-Jun-2017 11:15 - - - - - - - - - - - - - - - - - - - - 8.22 11.44 145.90 -1.30 - - - - 8.26 14.23 198.60 1.71 - - 156.13 - - - - - - - - - 0.76 - 0.05
22-Jun-2017 11:00 - - - - - - - - - - - - - - - - - - - - 8.22 11.11 145.70 -1.31 - - - - 8.25 13.99 198.50 1.70 - - 158.11 - - - - - - - - - 0.76 - 0.04
22-Jun-2017 10:45 - - - - - - - - - - - - - - - - - - - - 8.21 10.97 146.00 -1.29 - - - - 8.25 13.76 199.00 1.74 - - 158.11 - - - - - - - - - 0.77 - 0.05
22-Jun-2017 10:30 - - - - - - - - - - - - - - - - - - - - 8.20 10.69 145.50 -1.32 - - - - 8.24 13.55 198.10 1.67 - - 158.11 - - - - - - - - - 0.76 - 0.04
22-Jun-2017 10:15 - - - - - - - - - - - - - - - - - - - - 8.20 10.42 145.10 -1.34 - - - - 8.23 13.35 197.90 1.66 - - 158.11 - - - - - - - - - 0.76 - 0.04
22-Jun-2017 10:00 - - - - - - - - - - - - - - - - - - - - 8.20 10.16 145.00 -1.34 - - - - 8.23 13.17 197.80 1.65 - - 152.23 - - - - - - - - - 0.76 - 0.04
22-Jun-2017 09:45 - - - - - - - - - - - - - - - - - - - - 8.18 9.94 145.00 -1.34 - - - - 8.22 13.00 198.10 1.67 - - 160.10 - - - - - - - - - 0.76 - 0.04
22-Jun-2017 09:30 - - - - - - - - - - - - - - - - - - - - 8.17 9.74 145.10 -1.34 - - - - 8.22 12.87 198.20 1.68 - - 158.11 - - - - - - - - - 0.76 - 0.04
22-Jun-2017 09:15 - - - - - - - - - - - - - - - - - - - - 8.17 9.56 145.60 -1.31 - - - - 8.21 12.78 198.20 1.68 - - 158.11 - - - - - - - - - 0.76 - 0.04
22-Jun-2017 09:00 - - - - - - - - - - - - - - - - - - - - 8.16 9.42 144.70 -1.36 - - - - 8.20 12.72 197.70 1.65 - - 158.11 - - - - - - - - - 0.76 - 0.04
22-Jun-2017 08:45 - - - - - - - - - - - - - - - - - - - - 8.15 9.34 144.50 -1.37 - - - - 8.20 12.70 197.90 1.66 - - 154.18 - - - - - - - - - 0.76 - 0.04
22-Jun-2017 08:30 - - - - - - - - - - - - - - - - - - - - 8.14 9.27 144.20 -1.38 - - - - 8.19 12.73 198.00 1.67 - - 154.18 - - - - - - - - - 0.76 - 0.04
22-Jun-2017 08:15 - - - - - - - - - - - - - - - - - - - - 8.14 9.22 144.00 -1.39 - - - - 8.19 12.78 198.50 1.70 - - 160.10 - - - - - - - - - 0.76 - 0.04
22-Jun-2017 08:00 - - - - - - - - - - - - - - - - - - - - 8.13 9.22 143.90 -1.40 - - - - 8.19 12.84 198.10 1.67 - - 158.11 - - - - - - - - - 0.76 - 0.03
22-Jun-2017 07:45 - - - - - - - - - - - - - - - - - - - - 8.13 9.22 143.90 -1.40 - - - - 8.18 12.90 198.20 1.68 - - 158.11 - - - - - - - - - 0.76 - 0.03
22-Jun-2017 07:30 - - - - - - - - - - - - - - - - - - - - 8.13 9.23 143.70 -1.41 - - - - 8.18 12.98 198.80 1.72 - - 154.18 - - - - - - - - - 0.77 - 0.03
22-Jun-2017 07:15 - - - - - - - - - - - - - - - - - - - - 8.12 9.25 144.10 -1.39 - - - - 8.18 13.06 198.50 1.70 - - 158.11 - - - - - - - - - 0.76 - 0.04
22-Jun-2017 07:00 - - - - - - - - - - - - - - - - - - - - 8.12 9.29 143.70 -1.41 - - - - 8.18 13.15 199.10 1.74 - - 154.18 - - - - - - - - - 0.77 - 0.03
22-Jun-2017 06:45 - - - - - - - - - - - - - - - - - - - - 8.12 9.34 143.60 -1.41 - - - - 8.17 13.24 198.70 1.72 - - 160.10 - - - - - - - - - 0.76 - 0.03
22-Jun-2017 06:30 - - - - - - - - - - - - - - - - - - - - 8.12 9.39 143.70 -1.41 - - - - 8.17 13.34 199.40 1.76 - - 160.10 - - - - - - - - - 0.77 - 0.03
22-Jun-2017 06:15 - - - - - - - - - - - - - - - - - - - - 8.11 9.46 143.60 -1.41 - - - - 8.16 13.46 199.50 1.77 - - 162.10 - - - - - - - - - 0.77 - 0.03
22-Jun-2017 06:00 - - - - - - - - - - - - - - - - - - - - 8.12 9.54 143.60 -1.41 - - - - 8.16 13.58 199.70 1.78 - - 160.10 - - - - - - - - - 0.77 - 0.03
22-Jun-2017 05:45 - - - - - - - - - - - - - - - - - - - - 8.11 9.63 144.20 -1.38 - - - - 8.16 13.71 199.70 1.78 - - 160.10 - - - - - - - - - 0.77 - 0.04
22-Jun-2017 05:30 - - - - - - - - - - - - - - - - - - - - 8.11 9.73 144.50 -1.37 - - - - 8.16 13.85 199.40 1.76 - - 158.11 - - - - - - - - - 0.77 - 0.04
22-Jun-2017 05:15 - - - - - - - - - - - - - - - - - - - - 8.11 9.83 142.90 -1.45 - - - - 8.17 13.99 199.70 1.78 - - 158.11 - - - - - - - - - 0.77 - 0.03
22-Jun-2017 05:00 - - - - - - - - - - - - - - - - - - - - 8.11 9.93 142.80 -1.45 - - - - 8.16 14.11 200.00 1.80 - - 156.13 - - - - - - - - - 0.77 - 0.03
22-Jun-2017 04:45 - - - - - - - - - - - - - - - - - - - - 8.11 10.02 142.80 -1.45 - - - - 8.16 14.24 199.90 1.80 - - 164.12 - - - - - - - - - 0.77 - 0.03
22-Jun-2017 04:30 - - - - - - - - - - - - - - - - - - - - 8.12 10.13 142.30 -1.47 - - - - 8.17 14.35 200.00 1.80 - - 160.10 - - - - - - - - - 0.77 - 0.03
22-Jun-2017 04:15 - - - - - - - - - - - - - - - - - - - - 8.12 10.24 142.30 -1.47 - - - - 8.17 14.46 200.00 1.80 - - 160.10 - - - - - - - - - 0.77 - 0.03
22-Jun-2017 04:00 - - - - - - - - - - - - - - - - - - - - 8.12 10.36 142.40 -1.47 - - - - 8.17 14.57 201.00 1.87 - - 166.16 - - - - - - - - - 0.78 - 0.03
22-Jun-2017 03:45 - - - - - - - - - - - - - - - - - - - - 8.12 10.50 143.10 -1.44 - - - - 8.17 14.66 201.00 1.87 - - 164.12 - - - - - - - - - 0.78 - 0.03
22-Jun-2017 03:30 - - - - - - - - - - - - - - - - - - - - 8.12 10.63 142.80 -1.45 - - - - 8.17 14.75 201.00 1.87 - - 164.12 - - - - - - - - - 0.78 - 0.03
22-Jun-2017 03:15 - - - - - - - - - - - - - - - - - - - - 8.12 10.77 143.30 -1.43 - - - - 8.16 14.86 201.00 1.87 - - 158.11 - - - - - - - - - 0.78 - 0.03
22-Jun-2017 03:00 - - - - - - - - - - - - - - - - - - - - 8.12 10.92 143.10 -1.44 - - - - 8.17 14.96 201.00 1.87 - - 160.10 - - - - - - - - - 0.78 - 0.03
22-Jun-2017 02:45 - - - - - - - - - - - - - - - - - - - - 8.12 11.07 143.30 -1.43 - - - - 8.17 15.05 200.00 1.80 - - 168.21 - - - - - - - - - 0.77 - 0.03
22-Jun-2017 02:30 - - - - - - - - - - - - - - - - - - - - 8.12 11.23 143.70 -1.41 - - - - 8.17 15.15 200.00 1.80 - - 160.10 - - - - - - - - - 0.77 - 0.03
22-Jun-2017 02:15 - - - - - - - - - - - - - - - - - - - - 8.13 11.39 143.50 -1.42 - - - - 8.17 15.25 200.00 1.80 - - 166.16 - - - - - - - - - 0.77 - 0.03
22-Jun-2017 02:00 - - - - - - - - - - - - - - - - - - - - 8.13 11.56 144.10 -1.39 - - - - 8.18 15.35 201.00 1.87 - - 162.10 - - - - - - - - - 0.78 - 0.04
22-Jun-2017 01:45 - - - - - - - - - - - - - - - - - - - - 8.13 11.74 143.90 -1.40 - - - - 8.18 15.46 200.00 1.80 - - 164.12 - - - - - - - - - 0.77 - 0.03
22-Jun-2017 01:30 - - - - - - - - - - - - - - - - - - - - 8.13 11.93 144.60 -1.36 - - - - 8.18 15.57 201.00 1.87 - - 164.12 - - - - - - - - - 0.78 - 0.04
22-Jun-2017 01:15 - - - - - - - - - - - - - - - - - - - - 8.13 12.13 144.40 -1.37 - - - - 8.18 15.69 201.00 1.87 - - 160.10 - - - - - - - - - 0.78 - 0.04
22-Jun-2017 01:00 - - - - - - - - - - - - - - - - - - - - 8.13 12.32 144.70 -1.36 - - - - 8.18 15.81 199.90 1.80 - - 162.10 - - - - - - - - - 0.77 - 0.04
22-Jun-2017 00:45 - - - - - - - - - - - - - - - - - - - - 8.13 12.52 145.40 -1.32 - - - - 8.18 15.91 199.90 1.80 - - 158.11 - - - - - - - - - 0.77 - 0.04
22-Jun-2017 00:30 - - - - - - - - - - - - - - - - - - - - 8.13 12.72 145.70 -1.31 - - - - 8.18 16.02 200.00 1.80 - - 156.13 - - - - - - - - - 0.77 - 0.04
22-Jun-2017 00:15 - - - - - - - - - - - - - - - - - - - - 8.14 12.91 145.80 -1.30 - - - - 8.18 16.13 200.00 1.80 - - 162.10 - - - - - - - - - 0.77 - 0.05
22-Jun-2017 00:00 - - - - - - - - - - - - - - - - - - - - 8.14 13.10 146.20 -1.29 - - - - 8.18 16.23 200.00 1.80 - - 164.12 - - - - - - - - - 0.77 - 0.05
21-Jun-2017 23:45 - - - - - - - - - - - - - - - - - - - - 8.14 13.30 145.80 -1.30 - - - - 8.18 16.33 201.00 1.87 - - 156.13 - - - - - - - - - 0.78 - 0.05
21-Jun-2017 23:30 - - - - - - - - - - - - - - - - - - - - 8.14 13.50 146.20 -1.29 - - - - 8.18 16.44 200.00 1.80 - - 164.12 - - - - - - - - - 0.77 - 0.05
21-Jun-2017 23:15 - - - - - - - - - - - - - - - - - - - - 8.14 13.71 146.30 -1.28 - - - - 8.18 16.53 200.00 1.80 - - 160.10 - - - - - - - - - 0.77 - 0.05
21-Jun-2017 23:00 - - - - - - - - - - - - - - - - - - - - 8.15 13.93 146.30 -1.28 - - - - 8.19 16.62 199.70 1.78 - - 160.10 - - - - - - - - - 0.77 - 0.05
21-Jun-2017 22:45 - - - - - - - - - - - - - - - - - - - - 8.15 14.14 146.80 -1.26 - - - - 8.19 16.68 200.00 1.80 - - 158.11 - - - - - - - - - 0.77 - 0.05
21-Jun-2017 22:30 - - - - - - - - - - - - - - - - - - - - 8.15 14.34 147.10 -1.24 - - - - 8.20 16.73 199.90 1.80 - - 162.10 - - - - - - - - - 0.77 - 0.05
21-Jun-2017 22:15 - - - - - - - - - - - - - - - - - - - - 8.15 14.54 147.60 -1.22 - - - - 8.20 16.78 200.00 1.80 - - 160.10 - - - - - - - - - 0.77 - 0.06
21-Jun-2017 22:00 - - - - - - - - - - - - - - - - - - - - 8.16 14.74 147.30 -1.23 - - - - 8.20 16.83 199.90 1.80 - - 158.11 - - - - - - - - - 0.77 - 0.05
21-Jun-2017 21:45 - - - - - - - - - - - - - - - - - - - - 8.16 14.93 147.80 -1.21 - - - - 8.21 16.88 200.00 1.80 - - 162.10 - - - - - - - - - 0.77 - 0.06
21-Jun-2017 21:30 - - - - - - - - - - - - - - - - - - - - 8.17 15.10 148.00 -1.20 - - - - 8.21 16.90 201.00 1.87 - - 160.10 - - - - - - - - - 0.78 - 0.06
21-Jun-2017 21:15 - - - - - - - - - - - - - - - - - - - - 8.17 15.24 147.70 -1.21 - - - - 8.22 16.89 201.00 1.87 - - 158.11 - - - - - - - - - 0.78 - 0.06
21-Jun-2017 21:00 - - - - - - - - - - - - - - - - - - - - 8.17 15.39 148.10 -1.19 - - - - 8.23 16.91 201.00 1.87 - - 156.13 - - - - - - - - - 0.78 - 0.06
21-Jun-2017 20:45 - - - - - - - - - - - - - - - - - - - - 8.18 15.56 147.70 -1.21 - - - - 8.23 16.95 200.00 1.80 - - 158.11 - - - - - - - - - 0.77 - 0.06
21-Jun-2017 20:30 - - - - - - - - - - - - - - - - - - - - 8.18 15.74 147.80 -1.21 - - - - 8.24 17.01 200.00 1.80 - - 156.13 - - - - - - - - - 0.77 - 0.06
21-Jun-2017 20:15 - - - - - - - - - - - - - - - - - - - - 8.19 15.89 148.40 -1.18 - - - - 8.24 17.05 200.00 1.80 - - 154.18 - - - - - - - - - 0.77 - 0.06
21-Jun-2017 20:00 - - - - - - - - - - - - - - - - - - - - 8.19 15.98 148.40 -1.18 - - - - 8.25 17.04 199.60 1.78 - - 156.13 - - - - - - - - - 0.77 - 0.06
21-Jun-2017 19:45 - - - - - - - - - - - - - - - - - - - - 8.20 16.06 148.00 -1.20 - - - - 8.26 17.00 199.50 1.77 - - 154.18 - - - - - - - - - 0.77 - 0.06
21-Jun-2017 19:30 - - - - - - - - - - - - - - - - - - - - 8.20 16.08 148.00 -1.20 - - - - 8.26 16.95 199.40 1.76 - - 154.18 - - - - - - - - - 0.77 - 0.06
21-Jun-2017 19:15 - - - - - - - - - - - - - - - - - - - - 8.20 16.11 147.90 -1.20 - - - - 8.27 16.94 199.90 1.80 - - 154.18 - - - - - - - - - 0.77 - 0.06
21-Jun-2017 19:00 - - - - - - - - - - - - - - - - - - - - 8.21 16.16 147.40 -1.23 - - - - 8.27 16.95 199.80 1.79 - - 154.18 - - - - - - - - - 0.77 - 0.05
21-Jun-2017 18:45 - - - - - - - - - - - - - - - - - - - - 8.21 16.23 147.90 -1.20 - - - - 8.28 16.97 199.80 1.79 - - 150.31 - - - - - - - - - 0.77 - 0.06
21-Jun-2017 18:30 - - - - - - - - - - - - - - - - - - - - 8.21 16.31 147.40 -1.23 - - - - 8.28 16.97 199.30 1.76 - - 156.13 - - - - - - - - - 0.77 - 0.05
21-Jun-2017 18:15 - - - - - - - - - - - - - - - - - - - - 8.21 16.42 148.10 -1.19 - - - - 8.28 17.00 199.60 1.78 - - 154.18 - - - - - - - - - 0.77 - 0.06
21-Jun-2017 18:00 - - - - - - - - - - - - - - - - - - - - 8.22 16.51 147.50 -1.22 - - - - 8.28 17.03 200.00 1.80 - - 152.23 - - - - - - - - - 0.77 - 0.06
21-Jun-2017 17:45 - - - - - - - - - - - - - - - - - - - - 8.22 16.61 148.20 -1.19 - - - - 8.28 16.98 200.00 1.80 - - 154.18 - - - - - - - - - 0.77 - 0.06
21-Jun-2017 17:30 - - - - - - - - - - - - - - - - - - - - 8.22 16.66 148.40 -1.18 - - - - 8.28 16.89 199.80 1.79 - - 154.18 - - - - - - - - - 0.77 - 0.06
21-Jun-2017 17:15 - - - - - - - - - - - - - - - - - - - - 8.22 16.51 148.30 -1.18 - - - - 8.27 16.76 199.90 1.80 - - 156.13 - - - - - - - - - 0.77 - 0.06
21-Jun-2017 17:00 - - - - - - - - - - - - - - - - - - - - 8.22 16.46 148.30 -1.18 - - - - 8.27 16.75 199.90 1.80 - - 154.18 - - - - - - - - - 0.77 - 0.06
21-Jun-2017 16:45 - - - - - - - - - - - - - - - - - - - - 8.22 16.37 147.90 -1.20 - - - - 8.26 16.74 199.40 1.76 - - 154.18 - - - - - - - - - 0.77 - 0.06
21-Jun-2017 16:30 - - - - - - - - - - - - - - - - - - - - 8.22 16.42 148.10 -1.19 - - - - 8.27 16.71 199.90 1.80 - - 156.13 - - - - - - - - - 0.77 - 0.06
21-Jun-2017 16:15 - - - - - - - - - - - - - - - - - - - - 8.22 16.35 148.40 -1.18 - - - - 8.27 16.64 199.40 1.76 - - 154.18 - - - - - - - - - 0.77 - 0.06
21-Jun-2017 16:00 - - - - - - - - - - - - - - - - - - - - 8.23 16.32 148.10 -1.19 - - - - 8.27 16.65 199.60 1.78 - - 158.11 - - - - - - - - - 0.77 - 0.06
21-Jun-2017 15:45 - - - - - - - - - - - - - - - - - - - - 8.23 16.35 148.60 -1.17 - - - - 8.28 16.66 199.70 1.78 - - 158.11 - - - - - - - - - 0.77 - 0.06
21-Jun-2017 15:30 - - - - - - - - - - - - - - - - - - - - 8.23 16.32 148.40 -1.18 - - - - 8.28 16.76 199.10 1.74 - - 162.10 - - - - - - - - - 0.77 - 0.06
21-Jun-2017 15:15 - - - - - - - - - - - - - - - - - - - - 8.23 16.11 148.60 -1.17 - - - - 8.28 16.80 199.80 1.79 - - 164.12 - - - - - - - - - 0.77 - 0.06
21-Jun-2017 15:00 - - - - - - - - - - - - - - - - - - - - 8.23 16.02 148.40 -1.18 - - - - 8.27 16.48 198.90 1.73 - - 162.10 - - - - - - - - - 0.77 - 0.06
21-Jun-2017 14:45 - - - - - - - - - - - - - - - - - - - - 8.23 15.80 148.80 -1.16 - - - - 8.27 16.22 199.40 1.76 - - 160.10 - - - - - - - - - 0.77 - 0.06
21-Jun-2017 14:30 - - - - - - - - - - - - - - - - - - - - 8.23 15.71 148.20 -1.19 - - - - 8.27 16.31 199.30 1.76 - - 162.10 - - - - - - - - - 0.77 - 0.06
21-Jun-2017 14:15 - - - - - - - - - - - - - - - - - - - - 8.23 15.48 147.90 -1.20 - - - - 8.27 16.35 199.20 1.75 - - 168.21 - - - - - - - - - 0.77 - 0.06
21-Jun-2017 14:00 - - - - - - - - - - - - - - - - - - - - 8.22 15.15 147.80 -1.21 - - - - 8.27 16.31 199.00 1.74 - - - - - - - - - - - - 0.77 - 0.06
21-Jun-2017 13:45 - - - - - - - - - - - - - - - - - - - - 8.22 14.72 147.80 -1.21 - - - - 8.27 16.03 199.00 1.74 - - 166.16 - - - - - - - - - 0.77 - 0.06
21-Jun-2017 13:30 - - - - - - - - - - - - - - - - - - - - 8.22 14.36 147.30 -1.23 - - - - 8.27 16.00 198.60 1.71 - - 162.10 - - - - - - - - - 0.76 - 0.05
21-Jun-2017 13:15 - - - - - - - - - - - - - - - - - - - - 8.22 13.91 147.60 -1.22 - - - - 8.27 16.09 198.80 1.72 - - 164.12 - - - - - - - - - 0.77 - 0.06
21-Jun-2017 13:00 - - - - - - - - - - - - - - - - - - - - 8.22 13.74 147.10 -1.24 - - - - 8.27 16.02 198.60 1.71 - - 162.10 - - - - - - - - - 0.76 - 0.05
21-Jun-2017 12:45 - - - - - - - - - - - - - - - - - - - - 8.21 13.59 147.10 -1.24 - - - - 8.27 15.84 198.40 1.69 - - 166.16 - - - - - - - - - 0.76 - 0.05
21-Jun-2017 12:30 - - - - - - - - - - - - - - - - - - - - 8.21 13.15 147.40 -1.23 - - - - 8.26 15.57 197.70 1.65 - - 166.16 - - - - - - - - - 0.76 - 0.05
21-Jun-2017 12:15 - - - - - - - - - - - - - - - - - - - - 8.21 12.84 147.20 -1.24 - - - - 8.26 15.10 197.20 1.61 - - 166.16 - - - - - - - - - 0.76 - 0.05
21-Jun-2017 12:00 - - - - - - - - - - - - - - - - - - - - 8.21 12.50 146.50 -1.27 - - - - 8.25 14.92 197.20 1.61 - - 170.28 - - - - - - - - - 0.76 - 0.05
21-Jun-2017 11:45 - - - - - - - - - - - - - - - - - - - - 8.21 12.23 146.50 -1.27 - - - - 8.25 14.86 197.70 1.65 - - 168.21 - - - - - - - - - 0.76 - 0.05
21-Jun-2017 11:30 - - - - - - - - - - - - - - - - - - - - 8.20 11.88 146.50 -1.27 - - - - 8.25 14.62 197.60 1.64 - - 172.36 - - - - - - - - - 0.76 - 0.05
21-Jun-2017 11:15 - - - - - - - - - - - - - - - - - - - - 8.20 11.72 146.50 -1.27 - - - - 8.24 14.48 196.70 1.58 - - 166.16 - - - - - - - - - 0.75 - 0.05
21-Jun-2017 11:00 - - - - - - - - - - - - - - - - - - - - 8.20 11.45 146.10 -1.29 - - - - 8.23 14.29 196.50 1.57 - - 172.36 - - - - - - - - - 0.75 - 0.05
21-Jun-2017 10:45 - - - - - - - - - - - - - - - - - - - - 8.18 11.20 146.60 -1.27 - - - - 8.23 14.07 196.80 1.59 - - 174.46 - - - - - - - - - 0.75 - 0.05
21-Jun-2017 10:30 - - - - - - - - - - - - - - - - - - - - 8.18 10.96 145.90 -1.30 - - - - 8.22 13.86 196.10 1.54 - - 172.36 - - - - - - - - - 0.75 - 0.05
21-Jun-2017 10:15 - - - - - - - - - - - - - - - - - - - - 8.18 10.68 145.70 -1.31 - - - - 8.21 13.68 196.50 1.57 - - 172.36 - - - - - - - - - 0.75 - 0.04
21-Jun-2017 10:00 - - - - - - - - - - - - - - - - - - - - 8.17 10.40 145.80 -1.30 - - - - 8.21 13.55 195.70 1.51 - - 172.36 - - - - - - - - - 0.75 - 0.05
21-Jun-2017 09:45 - - - - - - - - - - - - - - - - - - - - 8.16 10.13 145.70 -1.31 - - - - 8.20 13.41 195.70 1.51 - - 170.28 - - - - - - - - - 0.75 - 0.04
21-Jun-2017 09:30 - - - - - - - - - - - - - - - - - - - - 8.15 9.90 145.00 -1.34 - - - - 8.19 13.24 196.10 1.54 - - 174.46 - - - - - - - - - 0.75 - 0.04
21-Jun-2017 09:15 - - - - - - - - - - - - - - - - - - - - 8.15 9.74 145.00 -1.34 - - - - 8.19 13.18 195.60 1.50 - - 170.28 - - - - - - - - - 0.75 - 0.04
21-Jun-2017 09:00 - - - - - - - - - - - - - - - - - - - - 8.14 9.60 145.40 -1.32 - - - - 8.19 13.20 195.60 1.50 - - 172.36 - - - - - - - - - 0.75 - 0.04
21-Jun-2017 08:45 - - - - - - - - - - - - - - - - - - - - 8.15 9.47 144.80 -1.35 - - - - 8.18 13.13 196.10 1.54 - - 174.46 - - - - - - - - - 0.75 - 0.04
21-Jun-2017 08:30 - - - - - - - - - - - - - - - - - - - - 8.14 9.35 144.80 -1.35 - - - - 8.18 13.09 195.60 1.50 - - 176.58 - - - - - - - - - 0.75 - 0.04
21-Jun-2017 08:15 - - - - - - - - - - - - - - - - - - - - 8.14 9.32 145.20 -1.33 - - - - 8.17 13.17 195.70 1.51 - - 170.28 - - - - - - - - - 0.75 - 0.04
21-Jun-2017 08:00 - - - - - - - - - - - - - - - - - - - - 8.13 9.25 144.80 -1.35 - - - - 8.17 13.21 196.30 1.55 - - 178.71 - - - - - - - - - 0.75 - 0.04
21-Jun-2017 07:45 - - - - - - - - - - - - - - - - - - - - 8.13 9.21 144.90 -1.35 - - - - 8.17 13.31 196.30 1.55 - - 176.58 - - - - - - - - - 0.75 - 0.04
21-Jun-2017 07:30 - - - - - - - - - - - - - - - - - - - - 8.13 9.22 143.60 -1.41 - - - - 8.17 13.41 195.90 1.52 - - 176.58 - - - - - - - - - 0.75 - 0.03
21-Jun-2017 07:15 - - - - - - - - - - - - - - - - - - - - 8.13 9.23 143.70 -1.41 - - - - 8.17 13.53 195.90 1.52 - - 180.86 - - - - - - - - - 0.75 - 0.03
21-Jun-2017 07:00 - - - - - - - - - - - - - - - - - - - - 8.12 9.27 144.20 -1.38 - - - - 8.17 13.66 195.80 1.52 - - 172.36 - - - - - - - - - 0.75 - 0.04
21-Jun-2017 06:45 - - - - - - - - - - - - - - - - - - - - 8.11 9.34 143.50 -1.42 - - - - 8.17 13.76 196.50 1.57 - - 174.46 - - - - - - - - - 0.75 - 0.03
21-Jun-2017 06:30 - - - - - - - - - - - - - - - - - - - - 8.12 9.41 143.30 -1.43 - - - - 8.16 13.88 196.20 1.55 - - 172.36 - - - - - - - - - 0.75 - 0.03
21-Jun-2017 06:15 - - - - - - - - - - - - - - - - - - - - 8.12 9.49 144.10 -1.39 - - - - 8.16 14.01 196.90 1.59 - - 174.46 - - - - - - - - - 0.75 - 0.04
21-Jun-2017 06:00 - - - - - - - - - - - - - - - - - - - - 8.11 9.58 143.90 -1.40 - - - - 8.16 14.16 197.40 1.63 - - 170.28 - - - - - - - - - 0.76 - 0.03
21-Jun-2017 05:45 - - - - - - - - - - - - - - - - - - - - 8.11 9.69 143.80 -1.40 - - - - 8.16 14.31 196.80 1.59 - - 174.46 - - - - - - - - - 0.75 - 0.03
21-Jun-2017 05:30 - - - - - - - - - - - - - - - - - - - - 8.11 9.80 143.30 -1.43 - - - - 8.16 14.46 197.60 1.64 - - 172.36 - - - - - - - - - 0.76 - 0.03
21-Jun-2017 05:15 - - - - - - - - - - - - - - - - - - - - 8.11 9.91 142.10 -1.48 - - - - 8.16 14.63 197.40 1.63 - - 180.86 - - - - - - - - - 0.76 - 0.02
21-Jun-2017 05:00 - - - - - - - - - - - - - - - - - - - - 8.11 10.04 142.10 -1.48 - - - - 8.16 14.81 197.50 1.63 - - 174.46 - - - - - - - - - 0.76 - 0.02
21-Jun-2017 04:45 - - - - - - - - - - - - - - - - - - - - 8.11 10.17 142.10 -1.48 - - - - 8.16 14.98 198.20 1.68 - - 170.28 - - - - - - - - - 0.76 - 0.02
21-Jun-2017 04:30 - - - - - - - - - - - - - - - - - - - - 8.11 10.31 142.30 -1.47 - - - - 8.16 15.15 198.60 1.71 - - 164.12 - - - - - - - - - 0.76 - 0.03
21-Jun-2017 04:15 - - - - - - - - - - - - - - - - - - - - 8.11 10.45 142.20 -1.48 - - - - 8.17 15.31 198.70 1.72 - - 172.36 - - - - - - - - - 0.76 - 0.02
21-Jun-2017 04:00 - - - - - - - - - - - - - - - - - - - - 8.12 10.76 142.90 -1.45 - - - - - - - - - - 170.28 - - - - - - - - - - - 0.03
21-Jun-2017 03:45 - - - - - - - - - - - - - - - - - - - - 8.12 10.94 142.70 -1.46 - - - - - - - - - - 168.21 - - - - - - - - - - - 0.03
21-Jun-2017 03:30 - - - - - - - - - - - - - - - - - - - - 8.12 11.11 143.00 -1.44 - - - - - - - - - - 164.12 - - - - - - - - - - - 0.03
21-Jun-2017 03:00 - - - - - - - - - - - - - - - - - - - - 8.12 11.30 142.80 -1.45 - - - - 8.17 16.03 199.20 1.75 - - 168.21 - - - - - - - - - 0.77 - 0.03
21-Jun-2017 02:45 - - - - - - - - - - - - - - - - - - - - 8.12 11.48 142.70 -1.46 - - - - 8.17 16.16 199.40 1.76 - - 170.28 - - - - - - - - - 0.77 - 0.03
21-Jun-2017 02:30 - - - - - - - - - - - - - - - - - - - - 8.13 11.68 142.80 -1.45 - - - - 8.17 16.29 199.80 1.79 - - 172.36 - - - - - - - - - 0.77 - 0.03
21-Jun-2017 02:15 - - - - - - - - - - - - - - - - - - - - 8.13 11.87 143.60 -1.41 - - - - 8.17 16.40 199.90 1.80 - - 170.28 - - - - - - - - - 0.77 - 0.03
21-Jun-2017 02:00 - - - - - - - - - - - - - - - - - - - - 8.13 12.07 143.60 -1.41 - - - - 8.18 16.51 201.00 1.87 - - 174.46 - - - - - - - - - 0.78 - 0.03
21-Jun-2017 01:45 - - - - - - - - - - - - - - - - - - - - 8.14 12.28 143.40 -1.42 - - - - 8.18 16.62 201.00 1.87 - - 174.46 - - - - - - - - - 0.78 - 0.03
21-Jun-2017 01:30 - - - - - - - - - - - - - - - - - - - - 8.13 12.50 143.80 -1.40 - - - - 8.18 16.74 201.00 1.87 - - 170.28 - - - - - - - - - 0.78 - 0.03
21-Jun-2017 01:15 - - - - - - - - - - - - - - - - - - - - 8.13 12.71 144.20 -1.38 - - - - 8.18 16.85 202.00 1.94 - - 172.36 - - - - - - - - - 0.79 - 0.04
21-Jun-2017 01:00 - - - - - - - - - - - - - - - - - - - - 8.13 12.94 144.40 -1.37 - - - - 8.17 16.95 202.00 1.94 - - 172.36 - - - - - - - - - 0.79 - 0.04
21-Jun-2017 00:45 - - - - - - - - - - - - - - - - - - - - 8.14 13.16 144.40 -1.37 - - - - 8.18 17.03 202.00 1.94 - - 172.36 - - - - - - - - - 0.79 - 0.04
21-Jun-2017 00:30 - - - - - - - - - - - - - - - - - - - - 8.14 13.39 143.90 -1.40 - - - - 8.18 17.13 202.00 1.94 - - 174.46 - - - - - - - - - 0.79 - 0.03
21-Jun-2017 00:15 - - - - - - - - - - - - - - - - - - - - 8.14 13.61 144.40 -1.37 - - - - 8.18 17.24 202.00 1.94 - - 170.28 - - - - - - - - - 0.79 - 0.04
21-Jun-2017 00:00 - - - - - - - - - - - - - - - - - - - - 8.14 13.81 144.40 -1.37 - - - - 8.19 17.33 203.00 2.01 - - 168.21 - - - - - - - - - 0.79 - 0.04
20-Jun-2017 23:45 - - - - - - - - - - - - - - - - - - - - 8.14 14.03 144.80 -1.35 - - - - 8.19 17.41 203.00 2.01 - - 170.28 - - - - - - - - - 0.79 - 0.04
20-Jun-2017 23:30 - - - - - - - - - - - - - - - - - - - - 8.15 14.22 144.80 -1.35 - - - - 8.19 17.48 203.00 2.01 - - 168.21 - - - - - - - - - 0.79 - 0.04
20-Jun-2017 23:15 - - - - - - - - - - - - - - - - - - - - 8.15 14.42 145.20 -1.33 - - - - 8.20 17.52 203.00 2.01 - - 168.21 - - - - - - - - - 0.79 - 0.04
20-Jun-2017 23:00 - - - - - - - - - - - - - - - - - - - - 8.15 14.62 145.30 -1.33 - - - - 8.20 17.57 203.00 2.01 - - 170.28 - - - - - - - - - 0.79 - 0.04
20-Jun-2017 22:45 - - - - - - - - - - - - - - - - - - - - 8.16 14.83 145.50 -1.32 - - - - 8.20 17.62 203.00 2.01 - - 168.21 - - - - - - - - - 0.79 - 0.04
20-Jun-2017 22:30 - - - - - - - - - - - - - - - - - - - - 8.16 15.04 145.90 -1.30 - - - - 8.21 17.64 204.00 2.08 - - 168.21 - - - - - - - - - 0.80 - 0.05
20-Jun-2017 22:15 - - - - - - - - - - - - - - - - - - - - 8.17 15.26 146.20 -1.29 - - - - 8.21 17.66 203.00 2.01 - - 168.21 - - - - - - - - - 0.79 - 0.05
20-Jun-2017 22:00 - - - - - - - - - - - - - - - - - - - - 8.18 15.46 146.40 -1.28 - - - - 8.22 17.66 203.00 2.01 - - 164.12 - - - - - - - - - 0.79 - 0.05
20-Jun-2017 21:45 - - - - - - - - - - - - - - - - - - - - 8.18 15.65 146.70 -1.26 - - - - 8.22 17.69 204.00 2.08 - - 170.28 - - - - - - - - - 0.80 - 0.05
20-Jun-2017 21:30 - - - - - - - - - - - - - - - - - - - - 8.18 15.82 146.60 -1.27 - - - - 8.22 17.71 204.00 2.08 - - 164.12 - - - - - - - - - 0.80 - 0.05
20-Jun-2017 21:15 - - - - - - - - - - - - - - - - - - - - 8.19 15.99 147.10 -1.24 - - - - 8.22 17.72 204.00 2.08 - - 168.21 - - - - - - - - - 0.80 - 0.05
20-Jun-2017 21:00 - - - - - - - - - - - - - - - - - - - - 8.19 16.16 147.80 -1.21 - - - - 8.23 17.73 204.00 2.08 - - 162.10 - - - - - - - - - 0.80 - 0.06
20-Jun-2017 20:45 - - - - - - - - - - - - - - - - - - - - 8.20 16.31 147.90 -1.20 - - - - 8.24 17.77 203.00 2.01 - - 160.10 - - - - - - - - - 0.79 - 0.06
20-Jun-2017 20:30 - - - - - - - - - - - - - - - - - - - - 8.20 16.45 147.80 -1.21 - - - - 8.24 17.81 203.00 2.01 - - 158.11 - - - - - - - - - 0.79 - 0.06
20-Jun-2017 20:15 - - - - - - - - - - - - - - - - - - - - 8.21 16.58 148.60 -1.17 - - - - 8.24 17.81 204.00 2.08 - - 158.11 - - - - - - - - - 0.80 - 0.06
20-Jun-2017 20:00 - - - - - - - - - - - - - - - - - - - - 8.22 16.71 148.90 -1.15 - - - - 8.25 17.80 203.00 2.01 - - 156.13 - - - - - - - - - 0.79 - 0.06
20-Jun-2017 19:45 - - - - - - - - - - - - - - - - - - - - 8.23 16.83 149.40 -1.13 - - - - 8.25 17.79 203.00 2.01 - - 158.11 - - - - - - - - - 0.79 - 0.07
20-Jun-2017 19:30 - - - - - - - - - - - - - - - - - - - - 8.23 16.94 149.60 -1.12 - - - - 8.26 17.78 203.00 2.01 - - 158.11 - - - - - - - - - 0.79 - 0.07
20-Jun-2017 19:15 - - - - - - - - - - - - - - - - - - - - 8.24 17.06 149.50 -1.12 - - - - 8.26 17.72 203.00 2.01 - - 154.18 - - - - - - - - - 0.79 - 0.07
20-Jun-2017 19:00 - - - - - - - - - - - - - - - - - - - - 8.24 17.18 150.50 -1.08 - - - - 8.26 17.69 203.00 2.01 - - 152.23 - - - - - - - - - 0.79 - 0.07
20-Jun-2017 18:45 - - - - - - - - - - - - - - - - - - - - 8.25 17.33 150.90 -1.06 - - - - 8.26 17.67 203.00 2.01 - - 148.40 - - - - - - - - - 0.79 - 0.07
20-Jun-2017 18:30 - - - - - - - - - - - - - - - - - - - - 8.25 17.39 150.60 -1.07 - - - - 8.26 17.62 203.00 2.01 - - 144.62 - - - - - - - - - 0.79 - 0.07
20-Jun-2017 18:15 - - - - - - - - - - - - - - - - - - - - 8.26 17.42 151.60 -1.02 - - - - 8.26 17.55 203.00 2.01 - - 150.31 - - - - - - - - - 0.79 - 0.08
20-Jun-2017 18:00 - - - - - - - - - - - - - - - - - - - - 8.26 17.46 152.10 -1.00 - - - - 8.26 17.50 203.00 2.01 - - 148.40 - - - - - - - - - 0.79 - 0.08
20-Jun-2017 17:45 - - - - - - - - - - - - - - - - - - - - 8.26 17.49 152.30 -0.99 - - - - 8.26 17.51 203.00 2.01 - - 148.40 - - - - - - - - - 0.79 - 0.08
20-Jun-2017 17:30 - - - - - - - - - - - - - - - - - - - - 8.26 17.55 153.00 -0.95 - - - - 8.26 17.42 203.00 2.01 - - 146.50 - - - - - - - - - 0.79 - 0.09
20-Jun-2017 17:15 - - - - - - - - - - - - - - - - - - - - 8.26 17.62 153.10 -0.95 - - - - 8.26 17.34 202.00 1.94 - - 150.31 - - - - - - - - - 0.79 - 0.09
20-Jun-2017 17:00 - - - - - - - - - - - - - - - - - - - - 8.26 17.54 153.00 -0.95 - - - - 8.26 17.16 203.00 2.01 - - 144.62 - - - - - - - - - 0.79 - 0.09
20-Jun-2017 16:45 - - - - - - - - - - - - - - - - - - - - 8.26 17.38 152.90 -0.96 - - - - 8.26 16.92 203.00 2.01 - - 139.07 - - - - - - - - - 0.79 - 0.09
20-Jun-2017 16:30 - - - - - - - - - - - - - - - - - - - - 8.26 17.20 153.10 -0.95 - - - - 8.26 16.59 202.00 1.94 - - 140.91 - - - - - - - - - 0.79 - 0.09
20-Jun-2017 16:15 - - - - - - - - - - - - - - - - - - - - 8.26 17.02 153.10 -0.95 - - - - 8.26 16.54 202.00 1.94 - - 142.76 - - - - - - - - - 0.79 - 0.09
20-Jun-2017 16:00 - - - - - - - - - - - - - - - - - - - - 8.25 16.76 152.60 -0.97 - - - - 8.26 16.57 202.00 1.94 - - 144.62 - - - - - - - - - 0.79 - 0.08
20-Jun-2017 15:45 - - - - - - - - - - - - - - - - - - - - 8.25 16.44 152.20 -0.99 - - - - 8.26 16.61 201.00 1.87 - - 146.50 - - - - - - - - - 0.78 - 0.08
20-Jun-2017 15:30 - - - - - - - - - - - - - - - - - - - - 8.26 16.23 152.60 -0.97 - - - - 8.26 16.64 202.00 1.94 - - 140.91 - - - - - - - - - 0.79 - 0.08
20-Jun-2017 15:15 - - - - - - - - - - - - - - - - - - - - 8.26 16.09 152.00 -1.00 - - - - 8.25 16.64 201.00 1.87 - - 144.62 - - - - - - - - - 0.78 - 0.08
20-Jun-2017 15:00 - - - - - - - - - - - - - - - - - - - - 8.26 15.98 152.40 -0.98 - - - - 8.25 16.60 201.00 1.87 - - 140.91 - - - - - - - - - 0.78 - 0.08
20-Jun-2017 14:45 - - - - - - - - - - - - - - - - - - - - 8.26 15.64 152.20 -0.99 - - - - 8.26 16.55 201.00 1.87 - - 137.25 - - - - - - - - - 0.78 - 0.08
20-Jun-2017 14:30 - - - - - - - - - - - - - - - - - - - - 8.26 15.47 151.60 -1.02 - - - - 8.25 16.58 201.00 1.87 - - 144.62 - - - - - - - - - 0.78 - 0.08
20-Jun-2017 14:15 - - - - - - - - - - - - - - - - - - - - 8.26 15.37 152.10 -1.00 - - - - 8.26 16.72 201.00 1.87 - - 140.91 - - - - - - - - - 0.78 - 0.08
20-Jun-2017 14:00 - - - - - - - - - - - - - - - - - - - - 8.26 15.17 151.70 -1.02 - - - - 8.26 16.83 201.00 1.87 - - 140.91 - - - - - - - - - 0.78 - 0.08
20-Jun-2017 13:45 - - - - - - - - - - - - - - - - - - - - 8.26 15.11 150.90 -1.06 - - - - 8.26 16.81 200.00 1.80 - - 139.07 - - - - - - - - - 0.77 - 0.07
20-Jun-2017 13:30 - - - - - - - - - - - - - - - - - - - - 8.27 15.03 152.00 -1.00 - - - - 8.26 16.71 200.00 1.80 - - 140.91 - - - - - - - - - 0.77 - 0.08
20-Jun-2017 13:15 - - - - - - - - - - - - - - - - - - - - 8.26 14.81 151.90 -1.01 - - - - 8.27 16.81 200.00 1.80 - - 144.62 - - - - - - - - - 0.77 - 0.08
20-Jun-2017 13:00 - - - - - - - - - - - - - - - - - - - - 8.26 14.58 152.20 -0.99 - - - - 8.26 16.76 200.00 1.80 - - 142.76 - - - - - - - - - 0.77 - 0.08
20-Jun-2017 12:45 - - - - - - - - - - - - - - - - - - - - 8.25 14.24 151.70 -1.02 - - - - 8.26 16.55 199.70 1.78 - - 144.62 - - - - - - - - - 0.77 - 0.08
20-Jun-2017 12:30 - - - - - - - - - - - - - - - - - - - - 8.25 13.84 151.00 -1.05 - - - - 8.26 16.51 199.80 1.79 - - 148.40 - - - - - - - - - 0.77 - 0.08
20-Jun-2017 12:15 - - - - - - - - - - - - - - - - - - - - 8.25 13.48 149.90 -1.11 - - - - 8.25 16.27 200.00 1.80 - - 146.50 - - - - - - - - - 0.77 - 0.07
20-Jun-2017 12:00 - - - - - - - - - - - - - - - - - - - - 8.24 13.12 150.10 -1.10 - - - - 8.25 16.00 199.50 1.77 - - 148.40 - - - - - - - - - 0.77 - 0.07
20-Jun-2017 11:45 - - - - - - - - - - - - - - - - - - - - 8.23 12.76 151.10 -1.05 - - - - 8.25 15.71 199.30 1.76 - - 154.18 - - - - - - - - - 0.77 - 0.08
20-Jun-2017 11:30 - - - - - - - - - - - - - - - - - - - - 8.23 12.57 151.20 -1.04 - - - - 8.25 15.46 199.50 1.77 - - 154.18 - - - - - - - - - 0.77 - 0.08
20-Jun-2017 11:15 - - - - - - - - - - - - - - - - - - - - 8.22 12.30 150.80 -1.06 - - - - 8.24 15.24 198.70 1.72 - - 144.62 - - - - - - - - - 0.76 - 0.07
20-Jun-2017 11:00 - - - - - - - - - - - - - - - - - - - - 8.22 11.99 150.20 -1.09 - - - - 8.23 14.98 198.60 1.71 - - 156.13 - - - - - - - - - 0.76 - 0.07
20-Jun-2017 10:45 - - - - - - - - - - - - - - - - - - - - 8.21 11.72 150.00 -1.10 - - - - 8.23 14.74 198.50 1.70 - - 148.40 - - - - - - - - - 0.76 - 0.07
20-Jun-2017 10:30 - - - - - - - - - - - - - - - - - - - - 8.20 11.42 150.30 -1.09 - - - - 8.23 14.53 198.20 1.68 - - 152.23 - - - - - - - - - 0.76 - 0.07
20-Jun-2017 10:15 - - - - - - - - - - - - - - - - - - - - 8.20 11.14 149.40 -1.13 - - - - 8.22 14.32 198.90 1.73 - - 148.40 - - - - - - - - - 0.77 - 0.07
20-Jun-2017 10:00 - - - - - - - - - - - - - - - - - - - - 8.19 10.87 147.70 -1.21 - - - - 8.21 14.14 198.30 1.69 - - 150.31 - - - - - - - - - 0.76 - 0.06
20-Jun-2017 09:45 - - - - - - - - - - - - - - - - - - - - 8.19 10.62 145.80 -1.30 - - - - 8.21 13.97 198.80 1.72 - - 162.10 - - - - - - - - - 0.77 - 0.05
20-Jun-2017 09:30 - - - - - - - - - - - - - - - - - - - - 8.19 10.40 144.50 -1.37 - - - - 8.20 13.82 198.60 1.71 - - 156.13 - - - - - - - - - 0.76 - 0.04
20-Jun-2017 09:15 - - - - - - - - - - - - - - - - - - - - 8.18 10.19 144.40 -1.37 - - - - 8.20 13.70 198.60 1.71 - - 156.13 - - - - - - - - - 0.76 - 0.04
20-Jun-2017 09:00 - - - - - - - - - - - - - - - - - - - - 8.17 9.98 143.50 -1.42 - - - - 8.19 13.61 198.20 1.68 - - 154.18 - - - - - - - - - 0.76 - 0.03
20-Jun-2017 08:45 - - - - - - - - - - - - - - - - - - - - 8.17 9.83 143.50 -1.42 - - - - 8.19 13.53 198.50 1.70 - - 158.11 - - - - - - - - - 0.76 - 0.03
20-Jun-2017 08:30 - - - - - - - - - - - - - - - - - - - - 8.16 9.69 143.20 -1.43 - - - - 8.19 13.46 198.00 1.67 - - 150.31 - - - - - - - - - 0.76 - 0.03
20-Jun-2017 08:15 - - - - - - - - - - - - - - - - - - - - 8.15 9.58 143.60 -1.41 - - - - 8.18 13.42 198.10 1.67 - - 154.18 - - - - - - - - - 0.76 - 0.03
20-Jun-2017 08:00 - - - - - - - - - - - - - - - - - - - - 8.15 9.54 142.00 -1.49 - - - - 8.18 13.40 198.50 1.70 - - 150.31 - - - - - - - - - 0.76 - 0.02
20-Jun-2017 07:45 - - - - - - - - - - - - - - - - - - - - 8.14 9.50 142.70 -1.46 - - - - 8.17 13.42 198.40 1.69 - - 148.40 - - - - - - - - - 0.76 - 0.03
20-Jun-2017 07:30 - - - - - - - - - - - - - - - - - - - - 8.14 9.48 142.70 -1.46 - - - - 8.17 13.48 199.00 1.74 - - 137.25 - - - - - - - - - 0.77 - 0.03
20-Jun-2017 07:15 - - - - - - - - - - - - - - - - - - - - 8.14 9.49 142.40 -1.47 - - - - 8.17 13.56 199.20 1.75 - - 158.11 - - - - - - - - - 0.77 - 0.03
20-Jun-2017 07:00 - - - - - - - - - - - - - - - - - - - - 8.13 9.52 142.60 -1.46 - - - - 8.17 13.67 198.70 1.72 - - 164.12 - - - - - - - - - 0.76 - 0.03
20-Jun-2017 06:45 - - - - - - - - - - - - - - - - - - - - 8.13 9.56 142.40 -1.47 - - - - 8.16 13.79 198.70 1.72 - - 164.12 - - - - - - - - - 0.76 - 0.03
20-Jun-2017 06:30 - - - - - - - - - - - - - - - - - - - - 8.13 9.62 142.30 -1.47 - - - - 8.16 13.90 199.60 1.78 - - 166.16 - - - - - - - - - 0.77 - 0.03
20-Jun-2017 06:15 - - - - - - - - - - - - - - - - - - - - 8.13 9.69 142.40 -1.47 - - - - 8.16 14.03 199.20 1.75 - - 164.12 - - - - - - - - - 0.77 - 0.03
20-Jun-2017 06:00 - - - - - - - - - - - - - - - - - - - - 8.13 9.78 142.00 -1.49 - - - - 8.16 14.17 199.40 1.76 - - 166.16 - - - - - - - - - 0.77 - 0.02
20-Jun-2017 05:45 - - - - - - - - - - - - - - - - - - - - 8.13 9.87 141.70 -1.50 - - - - 8.16 14.31 199.70 1.78 - - 168.21 - - - - - - - - - 0.77 - 0.02
20-Jun-2017 05:30 - - - - - - - - - - - - - - - - - - - - 8.13 9.97 141.90 -1.49 - - - - 8.16 14.46 200.00 1.80 - - 174.46 - - - - - - - - - 0.77 - 0.02
20-Jun-2017 05:15 - - - - - - - - - - - - - - - - - - - - 8.13 10.08 141.90 -1.49 - - - - 8.16 14.61 200.00 1.80 - - 166.16 - - - - - - - - - 0.77 - 0.02
20-Jun-2017 05:00 - - - - - - - - - - - - - - - - - - - - 8.14 10.20 141.80 -1.50 - - - - 8.16 14.76 200.00 1.80 - - 170.28 - - - - - - - - - 0.77 - 0.02
20-Jun-2017 04:45 - - - - - - - - - - - - - - - - - - - - 8.13 10.33 141.40 -1.52 - - - - 8.17 14.91 201.00 1.87 - - 170.28 - - - - - - - - - 0.78 - 0.02
20-Jun-2017 04:30 - - - - - - - - - - - - - - - - - - - - 8.14 10.45 141.30 -1.52 - - - - 8.17 15.06 201.00 1.87 - - 170.28 - - - - - - - - - 0.78 - 0.02
20-Jun-2017 04:15 - - - - - - - - - - - - - - - - - - - - 8.14 10.59 141.80 -1.50 - - - - 8.17 15.21 201.00 1.87 - - 172.36 - - - - - - - - - 0.78 - 0.02
20-Jun-2017 04:00 - - - - - - - - - - - - - - - - - - - - 8.14 10.73 141.40 -1.52 - - - - 8.17 15.35 202.00 1.94 - - 170.28 - - - - - - - - - 0.79 - 0.02
20-Jun-2017 03:45 - - - - - - - - - - - - - - - - - - - - 8.14 10.87 141.40 -1.52 - - - - 8.17 15.49 201.00 1.87 - - 170.28 - - - - - - - - - 0.78 - 0.02
20-Jun-2017 03:30 - - - - - - - - - - - - - - - - - - - - 8.14 11.02 142.10 -1.48 - - - - 8.17 15.64 202.00 1.94 - - 170.28 - - - - - - - - - 0.79 - 0.02
20-Jun-2017 03:15 - - - - - - - - - - - - - - - - - - - - 8.14 11.18 141.90 -1.49 - - - - 8.17 15.78 202.00 1.94 - - 170.28 - - - - - - - - - 0.79 - 0.02
20-Jun-2017 03:00 - - - - - - - - - - - - - - - - - - - - 8.14 11.34 141.80 -1.50 - - - - 8.17 15.91 202.00 1.94 - - 172.36 - - - - - - - - - 0.79 - 0.02
20-Jun-2017 02:45 - - - - - - - - - - - - - - - - - - - - 8.14 11.51 141.80 -1.50 - - - - 8.17 16.04 202.00 1.94 - - 174.46 - - - - - - - - - 0.79 - 0.02
20-Jun-2017 02:30 - - - - - - - - - - - - - - - - - - - - 8.15 11.69 142.00 -1.49 - - - - 8.17 16.16 202.00 1.94 - - 174.46 - - - - - - - - - 0.79 - 0.02
20-Jun-2017 02:15 - - - - - - - - - - - - - - - - - - - - 8.15 11.87 141.70 -1.50 - - - - 8.17 16.28 202.00 1.94 - - 174.46 - - - - - - - - - 0.79 - 0.02
20-Jun-2017 02:00 - - - - - - - - - - - - - - - - - - - - 8.15 12.05 141.60 -1.51 - - - - 8.17 16.39 203.00 2.01 - - 168.21 - - - - - - - - - 0.79 - 0.02
20-Jun-2017 01:45 - - - - - - - - - - - - - - - - - - - - 8.15 12.25 141.60 -1.51 - - - - 8.17 16.51 202.00 1.94 - - 168.21 - - - - - - - - - 0.79 - 0.02
20-Jun-2017 01:30 - - - - - - - - - - - - - - - - - - - - 8.15 12.44 142.20 -1.48 - - - - 8.17 16.62 202.00 1.94 - - 172.36 - - - - - - - - - 0.79 - 0.02
20-Jun-2017 01:15 - - - - - - - - - - - - - - - - - - - - 8.16 12.65 142.00 -1.49 - - - - 8.18 16.73 203.00 2.01 - - 168.21 - - - - - - - - - 0.79 - 0.02
20-Jun-2017 01:00 - - - - - - - - - - - - - - - - - - - - 8.16 12.86 141.80 -1.50 - - - - 8.18 16.84 202.00 1.94 - - 168.21 - - - - - - - - - 0.79 - 0.02
20-Jun-2017 00:45 - - - - - - - - - - - - - - - - - - - - 8.16 13.08 142.60 -1.46 - - - - 8.18 16.94 202.00 1.94 - - 168.21 - - - - - - - - - 0.79 - 0.03
20-Jun-2017 00:30 - - - - - - - - - - - - - - - - - - - - 8.16 13.30 142.20 -1.48 - - - - 8.18 17.03 203.00 2.01 - - 166.16 - - - - - - - - - 0.79 - 0.02
20-Jun-2017 00:15 - - - - - - - - - - - - - - - - - - - - 8.16 13.52 142.50 -1.47 - - - - 8.18 17.13 202.00 1.94 - - 168.21 - - - - - - - - - 0.79 - 0.03
20-Jun-2017 00:00 - - - - - - - - - - - - - - - - - - - - 8.16 13.75 143.30 -1.43 - - - - 8.18 17.22 202.00 1.94 - - 168.21 - - - - - - - - - 0.79 - 0.03
19-Jun-2017 23:45 - - - - - - - - - - - - - - - - - - - - 8.16 13.97 143.50 -1.42 - - - - 8.18 17.31 202.00 1.94 - - 164.12 - - - - - - - - - 0.79 - 0.03
19-Jun-2017 23:30 - - - - - - - - - - - - - - - - - - - - 8.16 14.19 143.70 -1.41 - - - - 8.19 17.39 203.00 2.01 - - 166.16 - - - - - - - - - 0.79 - 0.03
19-Jun-2017 23:15 - - - - - - - - - - - - - - - - - - - - 8.16 14.42 144.20 -1.38 - - - - 8.19 17.47 202.00 1.94 - - 164.12 - - - - - - - - - 0.79 - 0.04
19-Jun-2017 23:00 - - - - - - - - - - - - - - - - - - - - 8.17 14.63 143.90 -1.40 - - - - 8.19 17.54 202.00 1.94 - - 164.12 - - - - - - - - - 0.79 - 0.03
19-Jun-2017 22:45 - - - - - - - - - - - - - - - - - - - - 8.17 14.85 144.30 -1.38 - - - - 8.20 17.63 202.00 1.94 - - 166.16 - - - - - - - - - 0.79 - 0.04
19-Jun-2017 22:30 - - - - - - - - - - - - - - - - - - - - 8.17 15.07 144.40 -1.37 - - - - 8.20 17.70 203.00 2.01 - - 162.10 - - - - - - - - - 0.79 - 0.04
19-Jun-2017 22:15 - - - - - - - - - - - - - - - - - - - - 8.18 15.28 145.10 -1.34 - - - - 8.21 17.78 203.00 2.01 - - 162.10 - - - - - - - - - 0.79 - 0.04
19-Jun-2017 22:00 - - - - - - - - - - - - - - - - - - - - 8.19 15.49 144.80 -1.35 - - - - 8.21 17.86 203.00 2.01 - - 160.10 - - - - - - - - - 0.79 - 0.04
19-Jun-2017 21:45 - - - - - - - - - - - - - - - - - - - - 8.19 15.69 145.70 -1.31 - - - - 8.22 17.92 203.00 2.01 - - 162.10 - - - - - - - - - 0.79 - 0.04
19-Jun-2017 21:30 - - - - - - - - - - - - - - - - - - - - 8.19 15.88 145.70 -1.31 - - - - 8.23 17.98 203.00 2.01 - - 156.13 - - - - - - - - - 0.79 - 0.04
19-Jun-2017 21:15 - - - - - - - - - - - - - - - - - - - - 8.20 16.08 146.10 -1.29 - - - - 8.23 18.03 203.00 2.01 - - 156.13 - - - - - - - - - 0.79 - 0.05
19-Jun-2017 21:00 - - - - - - - - - - - - - - - - - - - - 8.21 16.27 146.30 -1.28 - - - - 8.24 18.09 203.00 2.01 - - 158.11 - - - - - - - - - 0.79 - 0.05
19-Jun-2017 20:45 - - - - - - - - - - - - - - - - - - - - 8.22 16.45 146.10 -1.29 - - - - 8.25 18.14 203.00 2.01 - - 158.11 - - - - - - - - - 0.79 - 0.05
19-Jun-2017 20:30 - - - - - - - - - - - - - - - - - - - - 8.23 16.62 146.40 -1.28 - - - - 8.25 18.21 202.00 1.94 - - 156.13 - - - - - - - - - 0.79 - 0.05
19-Jun-2017 20:15 - - - - - - - - - - - - - - - - - - - - 8.24 16.78 147.10 -1.24 - - - - 8.26 18.28 203.00 2.01 - - 160.10 - - - - - - - - - 0.79 - 0.05
19-Jun-2017 20:00 - - - - - - - - - - - - - - - - - - - - 8.25 16.93 146.40 -1.28 - - - - 8.26 18.36 202.00 1.94 - - 156.13 - - - - - - - - - 0.79 - 0.05
19-Jun-2017 19:45 - - - - - - - - - - - - - - - - - - - - 8.26 17.07 146.50 -1.27 - - - - 8.27 18.45 202.00 1.94 - - 156.13 - - - - - - - - - 0.79 - 0.05
19-Jun-2017 19:30 - - - - - - - - - - - - - - - - - - - - 8.27 17.20 146.20 -1.29 - - - - 8.27 18.52 203.00 2.01 - - 156.13 - - - - - - - - - 0.79 - 0.05
19-Jun-2017 19:15 - - - - - - - - - - - - - - - - - - - - 8.28 17.31 146.80 -1.26 - - - - 8.28 18.59 203.00 2.01 - - 154.18 - - - - - - - - - 0.79 - 0.05
19-Jun-2017 19:00 - - - - - - - - - - - - - - - - - - - - 8.28 17.40 146.80 -1.26 - - - - 8.28 18.66 203.00 2.01 - - 154.18 - - - - - - - - - 0.79 - 0.05
19-Jun-2017 18:45 - - - - - - - - - - - - - - - - - - - - 8.29 17.47 146.50 -1.27 - - - - 8.29 18.72 203.00 2.01 - - 156.13 - - - - - - - - - 0.79 - 0.05
19-Jun-2017 18:30 - - - - - - - - - - - - - - - - - - - - 8.29 17.52 147.00 -1.25 - - - - 8.29 18.75 203.00 2.01 - - 156.13 - - - - - - - - - 0.79 - 0.05
19-Jun-2017 18:15 - - - - - - - - - - - - - - - - - - - - 8.30 17.56 146.70 -1.26 - - - - 8.29 18.77 203.00 2.01 - - 152.23 - - - - - - - - - 0.79 - 0.05
19-Jun-2017 18:00 - - - - - - - - - - - - - - - - - - - - 8.30 17.57 147.10 -1.24 - - - - 8.29 18.79 203.00 2.01 - - 158.11 - - - - - - - - - 0.79 - 0.05
19-Jun-2017 17:45 - - - - - - - - - - - - - - - - - - - - 8.30 17.56 147.10 -1.24 - - - - 8.29 18.78 202.00 1.94 - - 160.10 - - - - - - - - - 0.79 - 0.05
19-Jun-2017 17:30 - - - - - - - - - - - - - - - - - - - - 8.31 17.53 146.30 -1.28 - - - - 8.29 18.75 203.00 2.01 - - 156.13 - - - - - - - - - 0.79 - 0.05
19-Jun-2017 17:15 - - - - - - - - - - - - - - - - - - - - 8.31 17.47 147.10 -1.24 - - - - 8.28 18.71 203.00 2.01 - - 158.11 - - - - - - - - - 0.79 - 0.05
19-Jun-2017 17:00 - - - - - - - - - - - - - - - - - - - - 8.31 17.39 147.20 -1.24 - - - - 8.28 18.65 203.00 2.01 - - 156.13 - - - - - - - - - 0.79 - 0.05
19-Jun-2017 16:45 - - - - - - - - - - - - - - - - - - - - 8.31 17.28 146.80 -1.26 - - - - 8.28 18.56 202.00 1.94 - - 156.13 - - - - - - - - - 0.79 - 0.05
19-Jun-2017 16:30 - - - - - - - - - - - - - - - - - - - - 8.32 17.15 146.90 -1.25 - - - - 8.28 18.47 202.00 1.94 - - 158.11 - - - - - - - - - 0.79 - 0.05
19-Jun-2017 16:15 - - - - - - - - - - - - - - - - - - - - 8.32 17.01 146.30 -1.28 - - - - 8.28 18.36 202.00 1.94 - - 156.13 - - - - - - - - - 0.79 - 0.05
19-Jun-2017 16:00 - - - - - - - - - - - - - - - - - - - - 8.32 16.85 146.50 -1.27 - - - - 8.28 18.23 202.00 1.94 - - 158.11 - - - - - - - - - 0.79 - 0.05
19-Jun-2017 15:45 - - - - - - - - - - - - - - - - - - - - 8.31 16.66 147.40 -1.23 - - - - 8.28 18.10 202.00 1.94 - - 156.13 - - - - - - - - - 0.79 - 0.05
19-Jun-2017 15:30 - - - - - - - - - - - - - - - - - - - - 8.31 16.45 147.30 -1.23 - - - - 8.27 17.95 202.00 1.94 - - 160.10 - - - - - - - - - 0.79 - 0.05
19-Jun-2017 15:15 - - - - - - - - - - - - - - - - - - - - 8.31 16.23 146.90 -1.25 - - - - 8.27 17.77 202.00 1.94 - - 160.10 - - - - - - - - - 0.79 - 0.05
19-Jun-2017 15:00 - - - - - - - - - - - - - - - - - - - - 8.31 15.99 148.00 -1.20 - - - - 8.27 17.59 202.00 1.94 - - 160.10 - - - - - - - - - 0.79 - 0.06
19-Jun-2017 14:45 - - - - - - - - - - - - - - - - - - - - 8.31 15.73 148.00 -1.20 - - - - 8.27 17.41 202.00 1.94 - - 166.16 - - - - - - - - - 0.79 - 0.06
19-Jun-2017 14:30 - - - - - - - - - - - - - - - - - - - - 8.30 15.46 148.90 -1.15 - - - - 8.26 17.22 201.00 1.87 - - 164.12 - - - - - - - - - 0.78 - 0.06
19-Jun-2017 14:15 - - - - - - - - - - - - - - - - - - - - 8.30 15.17 149.40 -1.13 - - - - 8.26 17.02 202.00 1.94 - - 166.16 - - - - - - - - - 0.79 - 0.07
19-Jun-2017 14:00 - - - - - - - - - - - - - - - - - - - - 8.29 14.87 150.90 -1.06 - - - - 8.26 16.81 201.00 1.87 - - 166.16 - - - - - - - - - 0.78 - 0.07
19-Jun-2017 13:45 - - - - - - - - - - - - - - - - - - - - 8.29 14.57 151.50 -1.03 - - - - 8.26 16.60 202.00 1.94 - - 164.12 - - - - - - - - - 0.79 - 0.08
19-Jun-2017 13:30 - - - - - - - - - - - - - - - - - - - - 8.28 14.26 153.40 -0.94 - - - - 8.25 16.38 201.00 1.87 - - 164.12 - - - - - - - - - 0.78 - 0.09
19-Jun-2017 13:15 - - - - - - - - - - - - - - - - - - - - 8.28 13.94 154.00 -0.91 - - - - 8.25 16.15 201.00 1.87 - - 166.16 - - - - - - - - - 0.78 - 0.09
19-Jun-2017 13:00 - - - - - - - - - - - - - - - - - - - - 8.27 13.62 155.40 -0.84 - - - - 8.25 15.91 201.00 1.87 - - 168.21 - - - - - - - - - 0.78 - 0.10
19-Jun-2017 12:45 - - - - - - - - - - - - - - - - - - - - 8.26 13.30 155.10 -0.85 - - - - 8.25 15.69 201.00 1.87 - - 172.36 - - - - - - - - - 0.78 - 0.10
19-Jun-2017 12:30 - - - - - - - - - - - - - - - - - - - - 8.26 12.97 155.30 -0.84 - - - - 8.24 15.45 201.00 1.87 - - 174.46 - - - - - - - - - 0.78 - 0.10
19-Jun-2017 12:15 - - - - - - - - - - - - - - - - - - - - 8.26 12.65 155.60 -0.83 - - - - 8.24 15.20 200.00 1.80 - - 172.36 - - - - - - - - - 0.77 - 0.10
19-Jun-2017 12:00 - - - - - - - - - - - - - - - - - - - - 8.25 12.32 155.40 -0.84 - - - - 8.23 14.96 200.00 1.80 - - 174.46 - - - - - - - - - 0.77 - 0.10
19-Jun-2017 11:45 - - - - - - - - - - - - - - - - - - - - 8.25 11.99 154.60 -0.88 - - - - 8.23 14.72 200.00 1.80 - - 174.46 - - - - - - - - - 0.77 - 0.10
19-Jun-2017 11:30 - - - - - - - - - - - - - - - - - - - - 8.24 11.68 154.60 -0.88 - - - - 8.23 14.49 200.00 1.80 - - 174.46 - - - - - - - - - 0.77 - 0.10
19-Jun-2017 11:15 - - - - - - - - - - - - - - - - - - - - 8.24 11.37 154.40 -0.89 - - - - 8.23 14.28 200.00 1.80 - - 170.28 - - - - - - - - - 0.77 - 0.10
19-Jun-2017 11:00 - - - - - - - - - - - - - - - - - - - - 8.23 11.09 154.80 -0.87 - - - - 8.22 14.09 199.30 1.76 - - 178.71 - - - - - - - - - 0.77 - 0.10
19-Jun-2017 10:45 - - - - - - - - - - - - - - - - - - - - 8.23 10.84 154.40 -0.89 - - - - 8.22 13.91 199.30 1.76 - - 176.58 - - - - - - - - - 0.77 - 0.10
19-Jun-2017 10:30 - - - - - - - - - - - - - - - - - - - - 8.22 10.58 154.00 -0.91 - - - - 8.21 13.71 199.70 1.78 - - 172.36 - - - - - - - - - 0.77 - 0.09
19-Jun-2017 10:15 - - - - - - - - - - - - - - - - - - - - 8.22 10.34 153.80 -0.92 - - - - 8.21 13.55 199.00 1.74 - - 176.58 - - - - - - - - - 0.77 - 0.09
19-Jun-2017 10:00 - - - - - - - - - - - - - - - - - - - - 8.21 10.13 153.50 -0.93 - - - - 8.20 13.38 198.90 1.73 - - 172.36 - - - - - - - - - 0.77 - 0.09
19-Jun-2017 09:45 - - - - - - - - - - - - - - - - - - - - 8.21 9.93 153.60 -0.93 - - - - 8.20 13.23 199.10 1.74 - - 176.58 - - - - - - - - - 0.77 - 0.09
19-Jun-2017 09:30 - - - - - - - - - - - - - - - - - - - - 8.20 9.76 153.30 -0.94 - - - - 8.20 13.10 198.70 1.72 - - 174.46 - - - - - - - - - 0.76 - 0.09
19-Jun-2017 09:15 - - - - - - - - - - - - - - - - - - - - 8.19 9.59 153.80 -0.92 - - - - 8.19 12.99 199.00 1.74 - - 174.46 - - - - - - - - - 0.77 - 0.09
19-Jun-2017 09:00 - - - - - - - - - - - - - - - - - - - - 8.18 9.42 152.80 -0.96 - - - - 8.19 12.90 199.00 1.74 - - 174.46 - - - - - - - - - 0.77 - 0.09
19-Jun-2017 08:45 - - - - - - - - - - - - - - - - - - - - 8.18 9.28 152.80 -0.96 - - - - 8.18 12.83 199.70 1.78 - - 178.71 - - - - - - - - - 0.77 - 0.09
19-Jun-2017 08:30 - - - - - - - - - - - - - - - - - - - - 8.18 9.16 153.30 -0.94 - - - - 8.18 12.77 199.70 1.78 - - 176.58 - - - - - - - - - 0.77 - 0.09
19-Jun-2017 08:15 - - - - - - - - - - - - - - - - - - - - 8.17 9.08 152.80 -0.96 - - - - 8.18 12.73 199.30 1.76 - - 176.58 - - - - - - - - - 0.77 - 0.09
19-Jun-2017 08:00 - - - - - - - - - - - - - - - - - - - - 8.16 9.03 153.10 -0.95 - - - - 8.17 12.72 199.60 1.78 - - 172.36 - - - - - - - - - 0.77 - 0.09
19-Jun-2017 07:45 - - - - - - - - - - - - - - - - - - - - 8.17 9.00 152.50 -0.98 - - - - 8.17 12.75 199.60 1.78 - - 176.58 - - - - - - - - - 0.77 - 0.08
19-Jun-2017 07:30 - - - - - - - - - - - - - - - - - - - - 8.16 8.99 152.90 -0.96 - - - - 8.17 12.79 199.70 1.78 - - 172.36 - - - - - - - - - 0.77 - 0.09
19-Jun-2017 07:15 - - - - - - - - - - - - - - - - - - - - 8.16 9.00 152.90 -0.96 - - - - 8.17 12.85 201.00 1.87 - - 178.71 - - - - - - - - - 0.78 - 0.09
19-Jun-2017 07:00 - - - - - - - - - - - - - - - - - - - - 8.16 9.09 152.70 -0.97 - - - - 8.17 12.95 201.00 1.87 - - 168.21 - - - - - - - - - 0.78 - 0.09
19-Jun-2017 06:45 - - - - - - - - - - - - - - - - - - - - 8.15 9.15 152.80 -0.96 - - - - 8.17 13.04 201.00 1.87 - - 174.46 - - - - - - - - - 0.78 - 0.09
19-Jun-2017 06:30 - - - - - - - - - - - - - - - - - - - - 8.15 9.23 153.00 -0.95 - - - - 8.17 13.17 201.00 1.87 - - 170.28 - - - - - - - - - 0.78 - 0.09
19-Jun-2017 06:15 - - - - - - - - - - - - - - - - - - - - - - - - - - - - 8.16 13.31 201.00 1.87 - - - - - - - - - - - - 0.78 - -
19-Jun-2017 06:00 - - - - - - - - - - - - - - - - - - - - 8.15 9.32 153.30 -0.94 - - - - 8.17 13.47 202.00 1.94 - - 178.71 - - - - - - - - - 0.79 - 0.09
19-Jun-2017 05:45 - - - - - - - - - - - - - - - - - - - - 8.15 9.42 152.60 -0.97 - - - - 8.17 13.63 202.00 1.94 - - 164.12 - - - - - - - - - 0.79 - 0.08
19-Jun-2017 05:30 - - - - - - - - - - - - - - - - - - - - 8.15 9.53 152.40 -0.98 - - - - 8.17 13.80 203.00 2.01 - - 166.16 - - - - - - - - - 0.79 - 0.08
19-Jun-2017 05:15 - - - - - - - - - - - - - - - - - - - - 8.15 9.64 152.40 -0.98 - - - - 8.17 13.96 203.00 2.01 - - 164.12 - - - - - - - - - 0.79 - 0.08
19-Jun-2017 05:00 - - - - - - - - - - - - - - - - - - - - - - - - - - - - 8.17 14.13 204.00 2.08 - - - - - - - - - - - - 0.80 - -
19-Jun-2017 04:45 - - - - - - - - - - - - - - - - - - - - - - - - - - - - 8.17 14.29 204.00 2.08 - - - - - - - - - - - - 0.80 - -
19-Jun-2017 04:30 - - - - - - - - - - - - - - - - - - - - - - - - - - - - 8.18 14.45 204.00 2.08 - - - - - - - - - - - - 0.80 - -
19-Jun-2017 04:15 - - - - - - - - - - - - - - - - - - - - - - - - - - - - 8.18 14.61 204.00 2.08 - - - - - - - - - - - - 0.80 - -
19-Jun-2017 04:00 - - - - - - - - - - - - - - - - - - - - 8.16 10.30 151.40 -1.03 - - - - 8.18 14.77 205.00 2.14 - - 170.28 - - - - - - - - - 0.80 - 0.08
19-Jun-2017 03:45 - - - - - - - - - - - - - - - - - - - - 8.16 10.45 151.00 -1.05 - - - - 8.18 14.93 205.00 2.14 - - 166.16 - - - - - - - - - 0.80 - 0.08
19-Jun-2017 03:30 - - - - - - - - - - - - - - - - - - - - 8.16 10.59 151.90 -1.01 - - - - 8.18 15.08 206.00 2.21 - - 170.28 - - - - - - - - - 0.81 - 0.08
19-Jun-2017 03:15 - - - - - - - - - - - - - - - - - - - - 8.16 10.75 152.70 -0.97 - - - - 8.18 15.22 206.00 2.21 - - 170.28 - - - - - - - - - 0.81 - 0.09
19-Jun-2017 03:00 - - - - - - - - - - - - - - - - - - - - 8.17 10.91 152.40 -0.98 - - - - 8.19 15.37 206.00 2.21 - - 170.28 - - - - - - - - - 0.81 - 0.08
19-Jun-2017 02:45 - - - - - - - - - - - - - - - - - - - - 8.17 11.08 153.40 -0.94 - - - - 8.19 15.52 206.00 2.21 - - 174.46 - - - - - - - - - 0.81 - 0.09
19-Jun-2017 02:30 - - - - - - - - - - - - - - - - - - - - 8.17 11.26 153.00 -0.95 - - - - 8.19 15.67 206.00 2.21 - - 156.13 - - - - - - - - - 0.81 - 0.09
19-Jun-2017 02:15 - - - - - - - - - - - - - - - - - - - - 8.17 11.44 153.70 -0.92 - - - - 8.19 15.82 207.00 2.28 - - 160.10 - - - - - - - - - 0.82 - 0.09
19-Jun-2017 02:00 - - - - - - - - - - - - - - - - - - - - 8.17 11.62 152.90 -0.96 - - - - 8.19 15.97 207.00 2.28 - - 164.12 - - - - - - - - - 0.82 - 0.09
19-Jun-2017 01:45 - - - - - - - - - - - - - - - - - - - - 8.18 11.81 152.90 -0.96 - - - - 8.19 16.10 207.00 2.28 - - 154.18 - - - - - - - - - 0.82 - 0.09
19-Jun-2017 01:30 - - - - - - - - - - - - - - - - - - - - 8.18 12.01 153.30 -0.94 - - - - 8.19 16.24 207.00 2.28 - - 148.40 - - - - - - - - - 0.82 - 0.09
19-Jun-2017 01:15 - - - - - - - - - - - - - - - - - - - - 8.18 12.20 154.60 -0.88 - - - - 8.20 16.38 208.00 2.35 - - 146.50 - - - - - - - - - 0.82 - 0.10
19-Jun-2017 01:00 - - - - - - - - - - - - - - - - - - - - 8.19 12.41 153.80 -0.92 - - - - 8.19 16.50 207.00 2.28 - - 164.12 - - - - - - - - - 0.82 - 0.09
19-Jun-2017 00:45 - - - - - - - - - - - - - - - - - - - - 8.19 12.62 154.20 -0.90 - - - - 8.20 16.62 207.00 2.28 - - 156.13 - - - - - - - - - 0.82 - 0.09
19-Jun-2017 00:30 - - - - - - - - - - - - - - - - - - - - 8.19 12.84 154.00 -0.91 - - - - 8.20 16.73 208.00 2.35 - - 162.10 - - - - - - - - - 0.82 - 0.09
19-Jun-2017 00:15 - - - - - - - - - - - - - - - - - - - - 8.20 13.06 154.10 -0.90 - - - - 8.20 16.83 208.00 2.35 - - 162.10 - - - - - - - - - 0.82 - 0.09
19-Jun-2017 00:00 - - - - - - - - - - - - - - - - - - - - 8.20 13.26 154.90 -0.86 - - - - 8.21 16.93 208.00 2.35 - - 160.10 - - - - - - - - - 0.82 - 0.10
18-Jun-2017 23:45 - - - - - - - - - - - - - - - - - - - - 8.20 13.48 155.00 -0.86 - - - - 8.21 17.03 208.00 2.35 - - 160.10 - - - - - - - - - 0.82 - 0.10
18-Jun-2017 23:30 - - - - - - - - - - - - - - - - - - - - 8.20 13.69 155.20 -0.85 - - - - 8.21 17.12 209.00 2.42 - - 164.12 - - - - - - - - - 0.83 - 0.10
18-Jun-2017 23:15 - - - - - - - - - - - - - - - - - - - - 8.21 13.90 155.60 -0.83 - - - - 8.21 17.22 208.00 2.35 - - 160.10 - - - - - - - - - 0.82 - 0.10
18-Jun-2017 23:00 - - - - - - - - - - - - - - - - - - - - 8.22 14.12 154.80 -0.87 - - - - 8.22 17.32 208.00 2.35 - - 158.11 - - - - - - - - - 0.82 - 0.10
18-Jun-2017 22:45 - - - - - - - - - - - - - - - - - - - - 8.22 14.36 155.40 -0.84 - - - - 8.22 17.42 209.00 2.42 - - 156.13 - - - - - - - - - 0.83 - 0.10
18-Jun-2017 22:30 - - - - - - - - - - - - - - - - - - - - 8.23 14.58 156.20 -0.80 - - - - 8.23 17.52 208.00 2.35 - - 152.23 - - - - - - - - - 0.82 - 0.11
18-Jun-2017 22:15 - - - - - - - - - - - - - - - - - - - - 8.23 14.78 155.80 -0.82 - - - - 8.23 17.62 209.00 2.42 - - 158.11 - - - - - - - - - 0.83 - 0.10
18-Jun-2017 22:00 - - - - - - - - - - - - - - - - - - - - 8.24 15.01 156.50 -0.78 - - - - 8.23 17.71 209.00 2.42 - - 158.11 - - - - - - - - - 0.83 - 0.11
18-Jun-2017 21:45 - - - - - - - - - - - - - - - - - - - - 8.25 15.23 156.50 -0.78 - - - - 8.24 17.80 209.00 2.42 - - 156.13 - - - - - - - - - 0.83 - 0.11
18-Jun-2017 21:30 - - - - - - - - - - - - - - - - - - - - 8.25 15.44 156.80 -0.77 - - - - 8.24 17.90 208.00 2.35 - - 160.10 - - - - - - - - - 0.82 - 0.11
18-Jun-2017 21:15 - - - - - - - - - - - - - - - - - - - - 8.26 15.64 156.60 -0.78 - - - - 8.25 18.01 209.00 2.42 - - 154.18 - - - - - - - - - 0.83 - 0.11
18-Jun-2017 21:00 - - - - - - - - - - - - - - - - - - - - 8.27 15.83 156.10 -0.80 - - - - 8.25 18.10 209.00 2.42 - - 160.10 - - - - - - - - - 0.83 - 0.11
18-Jun-2017 20:45 - - - - - - - - - - - - - - - - - - - - 8.27 15.99 155.70 -0.82 - - - - 8.25 18.20 209.00 2.42 - - 156.13 - - - - - - - - - 0.83 - 0.10
18-Jun-2017 20:30 - - - - - - - - - - - - - - - - - - - - 8.28 16.18 156.00 -0.81 - - - - 8.26 18.33 209.00 2.42 - - 156.13 - - - - - - - - - 0.83 - 0.10
18-Jun-2017 20:15 - - - - - - - - - - - - - - - - - - - - 8.29 16.37 155.80 -0.82 - - - - 8.27 18.49 209.00 2.42 - - 154.18 - - - - - - - - - 0.83 - 0.10
18-Jun-2017 20:00 - - - - - - - - - - - - - - - - - - - - 8.30 16.57 155.70 -0.82 - - - - 8.27 18.64 209.00 2.42 - - 154.18 - - - - - - - - - 0.83 - 0.10
18-Jun-2017 19:45 - - - - - - - - - - - - - - - - - - - - 8.30 16.75 155.50 -0.83 - - - - 8.28 18.77 209.00 2.42 - - 156.13 - - - - - - - - - 0.83 - 0.10
18-Jun-2017 19:30 - - - - - - - - - - - - - - - - - - - - 8.31 16.92 155.40 -0.84 - - - - 8.28 18.90 209.00 2.42 - - 154.18 - - - - - - - - - 0.83 - 0.10
18-Jun-2017 19:15 - - - - - - - - - - - - - - - - - - - - 8.32 17.09 155.10 -0.85 - - - - 8.29 19.04 209.00 2.42 - - 154.18 - - - - - - - - - 0.83 - 0.10
18-Jun-2017 19:00 - - - - - - - - - - - - - - - - - - - - 8.33 17.24 155.80 -0.82 - - - - 8.29 19.17 209.00 2.42 - - 150.31 - - - - - - - - - 0.83 - 0.10
18-Jun-2017 18:45 - - - - - - - - - - - - - - - - - - - - 8.33 17.35 156.20 -0.80 - - - - 8.30 19.30 210.00 2.48 - - 152.23 - - - - - - - - - 0.84 - 0.11
18-Jun-2017 18:30 - - - - - - - - - - - - - - - - - - - - 8.33 17.45 156.20 -0.80 - - - - 8.30 19.42 210.00 2.48 - - 154.18 - - - - - - - - - 0.84 - 0.11
18-Jun-2017 18:15 - - - - - - - - - - - - - - - - - - - - 8.34 17.51 155.60 -0.83 - - - - 8.30 19.47 210.00 2.48 - - 150.31 - - - - - - - - - 0.84 - 0.10
18-Jun-2017 18:00 - - - - - - - - - - - - - - - - - - - - 8.34 17.57 155.50 -0.83 - - - - 8.30 19.52 210.00 2.48 - - 152.23 - - - - - - - - - 0.84 - 0.10
18-Jun-2017 17:45 - - - - - - - - - - - - - - - - - - - - 8.34 17.58 155.90 -0.81 - - - - 8.30 19.56 210.00 2.48 - - 150.31 - - - - - - - - - 0.84 - 0.10
18-Jun-2017 17:30 - - - - - - - - - - - - - - - - - - - - 8.34 17.52 155.30 -0.84 - - - - 8.30 19.55 210.00 2.48 - - 150.31 - - - - - - - - - 0.84 - 0.10
18-Jun-2017 17:15 - - - - - - - - - - - - - - - - - - - - 8.34 17.49 155.50 -0.83 - - - - 8.30 19.55 209.00 2.42 - - 148.40 - - - - - - - - - 0.83 - 0.10
18-Jun-2017 17:00 - - - - - - - - - - - - - - - - - - - - 8.35 17.44 155.80 -0.82 - - - - 8.30 19.51 209.00 2.42 - - 152.23 - - - - - - - - - 0.83 - 0.10
18-Jun-2017 16:45 - - - - - - - - - - - - - - - - - - - - 8.35 17.37 155.80 -0.82 - - - - 8.30 19.44 209.00 2.42 - - 150.31 - - - - - - - - - 0.83 - 0.10
18-Jun-2017 16:30 - - - - - - - - - - - - - - - - - - - - 8.35 17.23 156.00 -0.81 - - - - 8.30 19.37 209.00 2.42 - - 152.23 - - - - - - - - - 0.83 - 0.10
18-Jun-2017 16:15 - - - - - - - - - - - - - - - - - - - - 8.35 17.10 155.60 -0.83 - - - - 8.30 19.30 209.00 2.42 - - 152.23 - - - - - - - - - 0.83 - 0.10
18-Jun-2017 16:00 - - - - - - - - - - - - - - - - - - - - - - - - - - - - 8.30 19.18 210.00 2.48 - - - - - - - - - - - - 0.84 - -
18-Jun-2017 15:45 - - - - - - - - - - - - - - - - - - - - - - - - - - - - 8.30 19.05 210.00 2.48 - - - - - - - - - - - - 0.84 - -
18-Jun-2017 15:30 - - - - - - - - - - - - - - - - - - - - - - - - - - - - 8.30 18.91 209.00 2.42 - - - - - - - - - - - - 0.83 - -
18-Jun-2017 15:15 - - - - - - - - - - - - - - - - - - - - - - - - - - - - 8.30 18.77 209.00 2.42 - - - - - - - - - - - - 0.83 - -
18-Jun-2017 15:00 - - - - - - - - - - - - - - - - - - - - 8.33 16.05 154.90 -0.86 - - - - 8.29 18.62 209.00 2.42 - - 156.13 - - - - - - - - - 0.83 - 0.10
18-Jun-2017 14:45 - - - - - - - - - - - - - - - - - - - - 8.33 15.79 154.20 -0.90 - - - - 8.30 18.43 209.00 2.42 - - 160.10 - - - - - - - - - 0.83 - 0.09
18-Jun-2017 14:30 - - - - - - - - - - - - - - - - - - - - 8.33 15.51 153.70 -0.92 - - - - 8.29 18.24 209.00 2.42 - - 154.18 - - - - - - - - - 0.83 - 0.09
18-Jun-2017 14:15 - - - - - - - - - - - - - - - - - - - - 8.32 15.21 154.20 -0.90 - - - - 8.29 18.05 209.00 2.42 - - 158.11 - - - - - - - - - 0.83 - 0.09
18-Jun-2017 14:00 - - - - - - - - - - - - - - - - - - - - 8.32 14.96 154.40 -0.89 - - - - 8.29 17.84 209.00 2.42 - - 156.13 - - - - - - - - - 0.83 - 0.10
18-Jun-2017 13:45 - - - - - - - - - - - - - - - - - - - - 8.32 14.72 154.80 -0.87 - - - - 8.29 17.64 209.00 2.42 - - 156.13 - - - - - - - - - 0.83 - 0.10
18-Jun-2017 13:30 - - - - - - - - - - - - - - - - - - - - 8.31 14.45 155.20 -0.85 - - - - 8.28 17.40 209.00 2.42 - - 160.10 - - - - - - - - - 0.83 - 0.10
18-Jun-2017 13:15 - - - - - - - - - - - - - - - - - - - - 8.31 14.18 154.90 -0.86 - - - - 8.28 17.15 209.00 2.42 - - 158.11 - - - - - - - - - 0.83 - 0.10
18-Jun-2017 13:00 - - - - - - - - - - - - - - - - - - - - 8.31 13.92 155.20 -0.85 - - - - 8.28 16.94 209.00 2.42 - - 158.11 - - - - - - - - - 0.83 - 0.10
18-Jun-2017 12:45 - - - - - - - - - - - - - - - - - - - - 8.30 13.66 155.40 -0.84 - - - - 8.28 16.74 209.00 2.42 - - 160.10 - - - - - - - - - 0.83 - 0.10
18-Jun-2017 12:30 - - - - - - - - - - - - - - - - - - - - 8.30 13.42 155.30 -0.84 - - - - 8.28 16.51 208.00 2.35 - - 158.11 - - - - - - - - - 0.82 - 0.10
18-Jun-2017 12:15 - - - - - - - - - - - - - - - - - - - - 8.30 13.19 154.80 -0.87 - - - - 8.28 16.28 208.00 2.35 - - 158.11 - - - - - - - - - 0.82 - 0.10
18-Jun-2017 12:00 - - - - - - - - - - - - - - - - - - - - 8.29 12.99 155.40 -0.84 - - - - 8.27 16.05 208.00 2.35 - - 158.11 - - - - - - - - - 0.82 - 0.10
18-Jun-2017 11:45 - - - - - - - - - - - - - - - - - - - - 8.29 12.72 154.70 -0.87 - - - - 8.27 15.81 208.00 2.35 - - 156.13 - - - - - - - - - 0.82 - 0.10
18-Jun-2017 11:30 - - - - - - - - - - - - - - - - - - - - 8.28 12.47 154.10 -0.90 - - - - 8.27 15.59 207.00 2.28 - - 160.10 - - - - - - - - - 0.82 - 0.09
18-Jun-2017 11:15 - - - - - - - - - - - - - - - - - - - - 8.28 12.17 153.60 -0.93 - - - - 8.26 15.36 207.00 2.28 - - 166.16 - - - - - - - - - 0.82 - 0.09
18-Jun-2017 11:00 - - - - - - - - - - - - - - - - - - - - 8.27 11.90 153.50 -0.93 - - - - 8.26 15.13 207.00 2.28 - - 162.10 - - - - - - - - - 0.82 - 0.09
18-Jun-2017 10:45 - - - - - - - - - - - - - - - - - - - - 8.27 11.67 153.10 -0.95 - - - - 8.26 14.93 208.00 2.35 - - 164.12 - - - - - - - - - 0.82 - 0.09
18-Jun-2017 10:30 - - - - - - - - - - - - - - - - - - - - 8.26 11.39 152.50 -0.98 - - - - 8.25 14.73 208.00 2.35 - - 162.10 - - - - - - - - - 0.82 - 0.08
18-Jun-2017 10:15 - - - - - - - - - - - - - - - - - - - - 8.26 11.24 153.40 -0.94 - - - - 8.25 14.56 207.00 2.28 - - 158.11 - - - - - - - - - 0.82 - 0.09
18-Jun-2017 10:00 - - - - - - - - - - - - - - - - - - - - 8.25 11.06 153.60 -0.93 - - - - 8.24 14.40 206.00 2.21 - - 162.10 - - - - - - - - - 0.81 - 0.09
18-Jun-2017 09:45 - - - - - - - - - - - - - - - - - - - - 8.25 10.90 152.70 -0.97 - - - - 8.25 14.27 207.00 2.28 - - 168.21 - - - - - - - - - 0.82 - 0.09
18-Jun-2017 09:30 - - - - - - - - - - - - - - - - - - - - 8.24 10.76 153.20 -0.95 - - - - 8.24 14.14 207.00 2.28 - - 162.10 - - - - - - - - - 0.82 - 0.09
18-Jun-2017 09:15 - - - - - - - - - - - - - - - - - - - - 8.24 10.65 153.00 -0.95 - - - - 8.24 14.01 207.00 2.28 - - 160.10 - - - - - - - - - 0.82 - 0.09
18-Jun-2017 09:00 - - - - - - - - - - - - - - - - - - - - 8.23 10.54 153.00 -0.95 - - - - 8.24 13.90 207.00 2.28 - - 166.16 - - - - - - - - - 0.82 - 0.09
18-Jun-2017 08:45 - - - - - - - - - - - - - - - - - - - - 8.23 10.44 152.30 -0.99 - - - - 8.24 13.81 207.00 2.28 - - 166.16 - - - - - - - - - 0.82 - 0.08
18-Jun-2017 08:30 - - - - - - - - - - - - - - - - - - - - 8.22 10.38 152.30 -0.99 - - - - 8.23 13.75 208.00 2.35 - - 168.21 - - - - - - - - - 0.82 - 0.08
18-Jun-2017 08:15 - - - - - - - - - - - - - - - - - - - - 8.22 10.34 152.30 -0.99 - - - - 8.23 13.72 208.00 2.35 - - 162.10 - - - - - - - - - 0.82 - 0.08
18-Jun-2017 08:00 - - - - - - - - - - - - - - - - - - - - 8.22 10.34 152.70 -0.97 - - - - 8.22 13.72 208.00 2.35 - - 162.10 - - - - - - - - - 0.82 - 0.09
18-Jun-2017 07:45 - - - - - - - - - - - - - - - - - - - - 8.22 10.32 152.90 -0.96 - - - - 8.22 13.74 208.00 2.35 - - 160.10 - - - - - - - - - 0.82 - 0.09
18-Jun-2017 07:30 - - - - - - - - - - - - - - - - - - - - 8.21 10.34 153.10 -0.95 - - - - 8.22 13.79 208.00 2.35 - - 158.11 - - - - - - - - - 0.82 - 0.09
18-Jun-2017 07:15 - - - - - - - - - - - - - - - - - - - - 8.21 10.36 152.80 -0.96 - - - - 8.22 13.87 208.00 2.35 - - 160.10 - - - - - - - - - 0.82 - 0.09
18-Jun-2017 07:00 - - - - - - - - - - - - - - - - - - - - 8.21 10.41 152.00 -1.00 - - - - 8.22 13.95 209.00 2.42 - - 158.11 - - - - - - - - - 0.83 - 0.08
18-Jun-2017 06:45 - - - - - - - - - - - - - - - - - - - - 8.21 10.47 152.00 -1.00 - - - - 8.22 14.02 209.00 2.42 - - 160.10 - - - - - - - - - 0.83 - 0.08
18-Jun-2017 06:30 - - - - - - - - - - - - - - - - - - - - 8.21 10.53 152.10 -1.00 - - - - 8.22 14.10 209.00 2.42 - - 164.12 - - - - - - - - - 0.83 - 0.08
18-Jun-2017 06:15 - - - - - - - - - - - - - - - - - - - - 8.20 10.60 151.70 -1.02 - - - - 8.22 14.20 209.00 2.42 - - 162.10 - - - - - - - - - 0.83 - 0.08
18-Jun-2017 06:00 - - - - - - - - - - - - - - - - - - - - 8.20 10.68 151.90 -1.01 - - - - 8.22 14.32 209.00 2.42 - - 160.10 - - - - - - - - - 0.83 - 0.08
18-Jun-2017 05:45 - - - - - - - - - - - - - - - - - - - - 8.21 10.77 151.10 -1.05 - - - - 8.22 14.44 210.00 2.48 - - 156.13 - - - - - - - - - 0.84 - 0.08
18-Jun-2017 05:30 - - - - - - - - - - - - - - - - - - - - 8.21 10.85 151.60 -1.02 - - - - 8.22 14.56 210.00 2.48 - - 154.18 - - - - - - - - - 0.84 - 0.08
18-Jun-2017 05:15 - - - - - - - - - - - - - - - - - - - - 8.21 10.95 152.30 -0.99 - - - - 8.22 14.69 210.00 2.48 - - 160.10 - - - - - - - - - 0.84 - 0.08
18-Jun-2017 05:00 - - - - - - - - - - - - - - - - - - - - 8.21 11.04 152.60 -0.97 - - - - 8.22 14.82 211.00 2.55 - - 156.13 - - - - - - - - - 0.84 - 0.08
18-Jun-2017 04:45 - - - - - - - - - - - - - - - - - - - - 8.21 11.13 152.00 -1.00 - - - - 8.22 14.96 212.00 2.62 - - 158.11 - - - - - - - - - 0.85 - 0.08
18-Jun-2017 04:30 - - - - - - - - - - - - - - - - - - - - 8.21 11.24 151.60 -1.02 - - - - 8.22 15.10 211.00 2.55 - - 156.13 - - - - - - - - - 0.84 - 0.08
18-Jun-2017 04:15 - - - - - - - - - - - - - - - - - - - - 8.21 11.35 151.90 -1.01 - - - - 8.22 15.23 211.00 2.55 - - 160.10 - - - - - - - - - 0.84 - 0.08
18-Jun-2017 04:00 - - - - - - - - - - - - - - - - - - - - 8.22 11.46 151.80 -1.01 - - - - - - - - - - 160.10 - - - - - - - - - - - 0.08
18-Jun-2017 03:45 - - - - - - - - - - - - - - - - - - - - 8.21 11.57 152.00 -1.00 - - - - - - - - - - 150.31 - - - - - - - - - - - 0.08
18-Jun-2017 03:30 - - - - - - - - - - - - - - - - - - - - 8.21 11.68 152.70 -0.97 - - - - - - - - - - 152.23 - - - - - - - - - - - 0.09
18-Jun-2017 03:15 - - - - - - - - - - - - - - - - - - - - 8.22 11.79 152.10 -1.00 - - - - - - - - - - 154.18 - - - - - - - - - - - 0.08
18-Jun-2017 03:00 - - - - - - - - - - - - - - - - - - - - 8.21 11.91 152.10 -1.00 - - - - 8.23 15.82 213.00 2.69 - - 152.23 - - - - - - - - - 0.85 - 0.08
18-Jun-2017 02:45 - - - - - - - - - - - - - - - - - - - - 8.22 12.02 152.50 -0.98 - - - - 8.23 15.94 213.00 2.69 - - 156.13 - - - - - - - - - 0.85 - 0.08
18-Jun-2017 02:30 - - - - - - - - - - - - - - - - - - - - 8.22 12.15 152.20 -0.99 - - - - 8.23 16.03 213.00 2.69 - - 156.13 - - - - - - - - - 0.85 - 0.08
18-Jun-2017 02:15 - - - - - - - - - - - - - - - - - - - - 8.21 12.27 152.50 -0.98 - - - - 8.23 16.15 214.00 2.76 - - 156.13 - - - - - - - - - 0.86 - 0.08
18-Jun-2017 02:00 - - - - - - - - - - - - - - - - - - - - 8.22 12.40 152.70 -0.97 - - - - 8.23 16.27 214.00 2.76 - - 154.18 - - - - - - - - - 0.86 - 0.09
18-Jun-2017 01:45 - - - - - - - - - - - - - - - - - - - - 8.22 12.53 152.90 -0.96 - - - - 8.23 16.40 215.00 2.82 - - 160.10 - - - - - - - - - 0.87 - 0.09
18-Jun-2017 01:30 - - - - - - - - - - - - - - - - - - - - 8.22 12.67 153.60 -0.93 - - - - 8.23 16.50 215.00 2.82 - - 158.11 - - - - - - - - - 0.87 - 0.09
18-Jun-2017 01:15 - - - - - - - - - - - - - - - - - - - - 8.22 12.82 153.50 -0.93 - - - - 8.23 16.59 215.00 2.82 - - 154.18 - - - - - - - - - 0.87 - 0.09
18-Jun-2017 01:00 - - - - - - - - - - - - - - - - - - - - 8.22 12.98 152.90 -0.96 - - - - 8.24 16.68 215.00 2.82 - - 156.13 - - - - - - - - - 0.87 - 0.09
18-Jun-2017 00:45 - - - - - - - - - - - - - - - - - - - - 8.23 13.13 152.60 -0.97 - - - - 8.24 16.79 215.00 2.82 - - 154.18 - - - - - - - - - 0.87 - 0.08
18-Jun-2017 00:30 - - - - - - - - - - - - - - - - - - - - 8.23 13.29 153.40 -0.94 - - - - 8.24 16.89 215.00 2.82 - - 154.18 - - - - - - - - - 0.87 - 0.09
18-Jun-2017 00:15 - - - - - - - - - - - - - - - - - - - - 8.23 13.46 153.40 -0.94 - - - - 8.24 17.00 215.00 2.82 - - 154.18 - - - - - - - - - 0.87 - 0.09
18-Jun-2017 00:00 - - - - - - - - - - - - - - - - - - - - 8.23 13.62 152.90 -0.96 - - - - 8.24 17.12 216.00 2.89 - - 152.23 - - - - - - - - - 0.87 - 0.09
17-Jun-2017 23:45 - - - - - - - - - - - - - - - - - - - - 8.23 13.81 153.20 -0.95 - - - - 8.24 17.23 215.00 2.82 - - 150.31 - - - - - - - - - 0.87 - 0.09
17-Jun-2017 23:30 - - - - - - - - - - - - - - - - - - - - 8.24 13.99 154.20 -0.90 - - - - 8.24 17.32 216.00 2.89 - - 150.31 - - - - - - - - - 0.87 - 0.09
17-Jun-2017 23:15 - - - - - - - - - - - - - - - - - - - - 8.24 14.18 155.20 -0.85 - - - - 8.24 17.40 216.00 2.89 - - 148.40 - - - - - - - - - 0.87 - 0.10
17-Jun-2017 23:00 - - - - - - - - - - - - - - - - - - - - 8.24 14.37 154.90 -0.86 - - - - 8.24 17.49 216.00 2.89 - - 144.62 - - - - - - - - - 0.87 - 0.10
17-Jun-2017 22:45 - - - - - - - - - - - - - - - - - - - - 8.24 14.56 155.30 -0.84 - - - - 8.25 17.59 216.00 2.89 - - 152.23 - - - - - - - - - 0.87 - 0.10
17-Jun-2017 22:30 - - - - - - - - - - - - - - - - - - - - 8.24 14.76 155.30 -0.84 - - - - 8.25 17.67 216.00 2.89 - - 148.40 - - - - - - - - - 0.87 - 0.10
17-Jun-2017 22:15 - - - - - - - - - - - - - - - - - - - - 8.24 14.95 153.70 -0.92 - - - - 8.25 17.76 217.00 2.96 - - 150.31 - - - - - - - - - 0.88 - 0.09
17-Jun-2017 22:00 - - - - - - - - - - - - - - - - - - - - 8.24 15.13 151.50 -1.03 - - - - 8.24 17.85 216.00 2.89 - - 148.40 - - - - - - - - - 0.87 - 0.08
17-Jun-2017 21:45 - - - - - - - - - - - - - - - - - - - - 8.25 15.32 151.80 -1.01 - - - - 8.25 17.95 217.00 2.96 - - 146.50 - - - - - - - - - 0.88 - 0.08
17-Jun-2017 21:30 - - - - - - - - - - - - - - - - - - - - 8.26 15.49 151.70 -1.02 - - - - 8.25 18.06 217.00 2.96 - - 148.40 - - - - - - - - - 0.88 - 0.08
17-Jun-2017 21:15 - - - - - - - - - - - - - - - - - - - - 8.25 15.66 152.40 -0.98 - - - - 8.25 18.14 217.00 2.96 - - 150.31 - - - - - - - - - 0.88 - 0.08
17-Jun-2017 21:00 - - - - - - - - - - - - - - - - - - - - 8.26 15.83 152.50 -0.98 - - - - 8.25 18.23 217.00 2.96 - - 148.40 - - - - - - - - - 0.88 - 0.08
17-Jun-2017 20:45 - - - - - - - - - - - - - - - - - - - - 8.26 15.98 152.70 -0.97 - - - - 8.25 18.34 217.00 2.96 - - 146.50 - - - - - - - - - 0.88 - 0.09
17-Jun-2017 20:30 - - - - - - - - - - - - - - - - - - - - 8.27 16.13 152.60 -0.97 - - - - 8.26 18.39 217.00 2.96 - - 146.50 - - - - - - - - - 0.88 - 0.08
17-Jun-2017 20:15 - - - - - - - - - - - - - - - - - - - - 8.27 16.25 152.80 -0.96 - - - - 8.26 18.48 217.00 2.96 - - 144.62 - - - - - - - - - 0.88 - 0.09
17-Jun-2017 20:00 - - - - - - - - - - - - - - - - - - - - 8.29 16.38 153.10 -0.95 - - - - 8.27 18.51 217.00 2.96 - - 144.62 - - - - - - - - - 0.88 - 0.09
17-Jun-2017 19:45 - - - - - - - - - - - - - - - - - - - - 8.30 16.51 154.00 -0.91 - - - - 8.28 18.55 218.00 3.03 - - 142.76 - - - - - - - - - 0.88 - 0.09
17-Jun-2017 19:30 - - - - - - - - - - - - - - - - - - - - 8.31 16.64 153.90 -0.91 - - - - 8.28 18.60 218.00 3.03 - - 144.62 - - - - - - - - - 0.88 - 0.09
17-Jun-2017 19:15 - - - - - - - - - - - - - - - - - - - - 8.32 16.81 154.80 -0.87 - - - - 8.29 18.68 217.00 2.96 - - 142.76 - - - - - - - - - 0.88 - 0.10
17-Jun-2017 19:00 - - - - - - - - - - - - - - - - - - - - 8.33 16.97 154.60 -0.88 - - - - 8.30 18.76 218.00 3.03 - - 146.50 - - - - - - - - - 0.88 - 0.10
17-Jun-2017 18:45 - - - - - - - - - - - - - - - - - - - - 8.33 17.07 155.50 -0.83 - - - - 8.30 18.82 217.00 2.96 - - 142.76 - - - - - - - - - 0.88 - 0.10
17-Jun-2017 18:30 - - - - - - - - - - - - - - - - - - - - 8.34 17.13 156.10 -0.80 - - - - 8.31 18.90 218.00 3.03 - - 142.76 - - - - - - - - - 0.88 - 0.11
17-Jun-2017 18:15 - - - - - - - - - - - - - - - - - - - - 8.34 17.15 156.00 -0.81 - - - - 8.31 18.94 218.00 3.03 - - 144.62 - - - - - - - - - 0.88 - 0.10
17-Jun-2017 18:00 - - - - - - - - - - - - - - - - - - - - 8.34 17.10 156.30 -0.79 - - - - 8.31 18.93 218.00 3.03 - - 142.76 - - - - - - - - - 0.88 - 0.11
17-Jun-2017 17:45 - - - - - - - - - - - - - - - - - - - - 8.35 17.14 157.10 -0.76 - - - - 8.31 18.91 218.00 3.03 - - 144.62 - - - - - - - - - 0.88 - 0.11
17-Jun-2017 17:30 - - - - - - - - - - - - - - - - - - - - 8.35 17.14 156.90 -0.77 - - - - 8.31 18.88 218.00 3.03 - - 146.50 - - - - - - - - - 0.88 - 0.11
17-Jun-2017 17:15 - - - - - - - - - - - - - - - - - - - - 8.35 17.08 156.00 -0.81 - - - - 8.31 18.84 218.00 3.03 - - 142.76 - - - - - - - - - 0.88 - 0.10
17-Jun-2017 17:00 - - - - - - - - - - - - - - - - - - - - 8.35 17.05 156.10 -0.80 - - - - 8.31 18.78 218.00 3.03 - - 144.62 - - - - - - - - - 0.88 - 0.11
17-Jun-2017 16:45 - - - - - - - - - - - - - - - - - - - - 8.35 17.01 156.40 -0.79 - - - - 8.31 18.65 218.00 3.03 - - 144.62 - - - - - - - - - 0.88 - 0.11
17-Jun-2017 16:30 - - - - - - - - - - - - - - - - - - - - 8.35 16.93 156.00 -0.81 - - - - 8.31 18.50 218.00 3.03 - - 142.76 - - - - - - - - - 0.88 - 0.10
17-Jun-2017 16:15 - - - - - - - - - - - - - - - - - - - - 8.35 16.88 156.40 -0.79 - - - - 8.31 18.33 217.00 2.96 - - 148.40 - - - - - - - - - 0.88 - 0.11
17-Jun-2017 16:00 - - - - - - - - - - - - - - - - - - - - 8.34 16.75 156.10 -0.80 - - - - 8.31 18.09 218.00 3.03 - - 146.50 - - - - - - - - - 0.88 - 0.11
17-Jun-2017 15:45 - - - - - - - - - - - - - - - - - - - - 8.35 16.60 156.80 -0.77 - - - - 8.30 17.86 217.00 2.96 - - 150.31 - - - - - - - - - 0.88 - 0.11
17-Jun-2017 15:30 - - - - - - - - - - - - - - - - - - - - 8.35 16.45 156.40 -0.79 - - - - 8.31 17.70 218.00 3.03 - - 148.40 - - - - - - - - - 0.88 - 0.11
17-Jun-2017 15:15 - - - - - - - - - - - - - - - - - - - - 8.34 16.26 156.40 -0.79 - - - - 8.30 17.58 217.00 2.96 - - 150.31 - - - - - - - - - 0.88 - 0.11
17-Jun-2017 15:00 - - - - - - - - - - - - - - - - - - - - 8.34 16.00 156.10 -0.80 - - - - 8.30 17.49 217.00 2.96 - - 148.40 - - - - - - - - - 0.88 - 0.11
17-Jun-2017 14:45 - - - - - - - - - - - - - - - - - - - - 8.33 15.74 156.70 -0.77 - - - - 8.30 17.38 218.00 3.03 - - 148.40 - - - - - - - - - 0.88 - 0.11
17-Jun-2017 14:30 - - - - - - - - - - - - - - - - - - - - 8.33 15.44 156.30 -0.79 - - - - 8.30 17.13 218.00 3.03 - - 164.12 - - - - - - - - - 0.88 - 0.11
17-Jun-2017 14:15 - - - - - - - - - - - - - - - - - - - - 8.32 15.13 155.90 -0.81 - - - - 8.29 16.74 217.00 2.96 - - 162.10 - - - - - - - - - 0.88 - 0.10
17-Jun-2017 14:00 - - - - - - - - - - - - - - - - - - - - 8.32 14.81 155.70 -0.82 - - - - 8.29 16.60 217.00 2.96 - - 164.12 - - - - - - - - - 0.88 - 0.10
17-Jun-2017 13:45 - - - - - - - - - - - - - - - - - - - - 8.31 14.48 155.90 -0.81 - - - - 8.29 16.39 217.00 2.96 - - 162.10 - - - - - - - - - 0.88 - 0.10
17-Jun-2017 13:30 - - - - - - - - - - - - - - - - - - - - 8.31 14.13 155.20 -0.85 - - - - 8.28 16.13 216.00 2.89 - - 164.12 - - - - - - - - - 0.87 - 0.10
17-Jun-2017 13:15 - - - - - - - - - - - - - - - - - - - - 8.30 13.72 155.70 -0.82 - - - - 8.28 15.87 216.00 2.89 - - 166.16 - - - - - - - - - 0.87 - 0.10
17-Jun-2017 13:00 - - - - - - - - - - - - - - - - - - - - 8.30 13.29 154.90 -0.86 - - - - 8.28 15.76 216.00 2.89 - - 166.16 - - - - - - - - - 0.87 - 0.10
17-Jun-2017 12:45 - - - - - - - - - - - - - - - - - - - - 8.29 12.99 155.40 -0.84 - - - - 8.28 15.61 216.00 2.89 - - 166.16 - - - - - - - - - 0.87 - 0.10
17-Jun-2017 12:30 - - - - - - - - - - - - - - - - - - - - 8.29 12.63 155.10 -0.85 - - - - 8.28 15.32 216.00 2.89 - - 170.28 - - - - - - - - - 0.87 - 0.10
17-Jun-2017 12:15 - - - - - - - - - - - - - - - - - - - - 8.28 12.28 155.20 -0.85 - - - - 8.28 14.98 216.00 2.89 - - 170.28 - - - - - - - - - 0.87 - 0.10
17-Jun-2017 12:00 - - - - - - - - - - - - - - - - - - - - 8.28 11.91 154.50 -0.88 - - - - 8.27 14.68 215.00 2.82 - - 164.12 - - - - - - - - - 0.87 - 0.10
17-Jun-2017 11:45 - - - - - - - - - - - - - - - - - - - - 8.28 11.58 153.80 -0.92 - - - - 8.27 14.38 216.00 2.89 - - 170.28 - - - - - - - - - 0.87 - 0.09
17-Jun-2017 11:30 - - - - - - - - - - - - - - - - - - - - 8.27 11.34 154.30 -0.89 - - - - 8.26 14.21 215.00 2.82 - -